<?xml version="1.0" encoding="UTF-8" standalone="no" ?>
<gpx xmlns="http://www.topografix.com/GPX/1/1" xmlns:xsi="http://www.w3.org/2001/XMLSchema-instance" xsi:schemaLocation="http://www.topografix.com/GPX/1/1 http://www.topografix.com/GPX/1/1/gpx.xsd" version="1.1" creator="VisuGPX - https://www.visugpx.com">
  <metadata>
    <name>Randonnée du 07/04/2022 à 08:21</name>
  </metadata>
  <trk>
    <name><![CDATA[Randonnée du 07/04/2022 à 08:21]]></name>
    <trkseg>
      <trkpt lat="45.32301" lon="4.7778">
        <ele>186</ele>
        <time>2022-04-07T08:21:40+02:00</time>
      </trkpt>
      <trkpt lat="45.32295" lon="4.77763">
        <ele>189</ele>
        <time>2022-04-07T08:30:09+02:00</time>
      </trkpt>
      <trkpt lat="45.32286" lon="4.77747">
        <ele>187</ele>
        <time>2022-04-07T08:30:22+02:00</time>
      </trkpt>
      <trkpt lat="45.32278" lon="4.7773">
        <ele>190</ele>
        <time>2022-04-07T08:30:33+02:00</time>
      </trkpt>
      <trkpt lat="45.32271" lon="4.77712">
        <ele>190</ele>
        <time>2022-04-07T08:30:44+02:00</time>
      </trkpt>
      <trkpt lat="45.32263" lon="4.77695">
        <ele>191</ele>
        <time>2022-04-07T08:30:55+02:00</time>
      </trkpt>
      <trkpt lat="45.32255" lon="4.77678">
        <ele>190</ele>
        <time>2022-04-07T08:31:06+02:00</time>
      </trkpt>
      <trkpt lat="45.32249" lon="4.7766">
        <ele>187</ele>
        <time>2022-04-07T08:31:17+02:00</time>
      </trkpt>
      <trkpt lat="45.32233" lon="4.77626">
        <ele>190</ele>
        <time>2022-04-07T08:31:43+02:00</time>
      </trkpt>
      <trkpt lat="45.32227" lon="4.77609">
        <ele>193</ele>
        <time>2022-04-07T08:31:49+02:00</time>
      </trkpt>
      <trkpt lat="45.32219" lon="4.77593">
        <ele>195</ele>
        <time>2022-04-07T08:31:58+02:00</time>
      </trkpt>
      <trkpt lat="45.32215" lon="4.77573">
        <ele>188</ele>
        <time>2022-04-07T08:32:09+02:00</time>
      </trkpt>
      <trkpt lat="45.32206" lon="4.77557">
        <ele>191</ele>
        <time>2022-04-07T08:32:20+02:00</time>
      </trkpt>
      <trkpt lat="45.32198" lon="4.7754">
        <ele>191</ele>
        <time>2022-04-07T08:32:32+02:00</time>
      </trkpt>
      <trkpt lat="45.32191" lon="4.77524">
        <ele>192</ele>
        <time>2022-04-07T08:32:42+02:00</time>
      </trkpt>
      <trkpt lat="45.32182" lon="4.77509">
        <ele>194</ele>
        <time>2022-04-07T08:32:53+02:00</time>
      </trkpt>
      <trkpt lat="45.32176" lon="4.77491">
        <ele>190</ele>
        <time>2022-04-07T08:33:04+02:00</time>
      </trkpt>
      <trkpt lat="45.32169" lon="4.77474">
        <ele>190</ele>
        <time>2022-04-07T08:33:15+02:00</time>
      </trkpt>
      <trkpt lat="45.32164" lon="4.77455">
        <ele>191</ele>
        <time>2022-04-07T08:33:26+02:00</time>
      </trkpt>
      <trkpt lat="45.32157" lon="4.77437">
        <ele>188</ele>
        <time>2022-04-07T08:33:37+02:00</time>
      </trkpt>
      <trkpt lat="45.3215" lon="4.7742">
        <ele>192</ele>
        <time>2022-04-07T08:33:47+02:00</time>
      </trkpt>
      <trkpt lat="45.32142" lon="4.77403">
        <ele>195</ele>
        <time>2022-04-07T08:33:59+02:00</time>
      </trkpt>
      <trkpt lat="45.32134" lon="4.77386">
        <ele>195</ele>
        <time>2022-04-07T08:34:11+02:00</time>
      </trkpt>
      <trkpt lat="45.32129" lon="4.77368">
        <ele>193</ele>
        <time>2022-04-07T08:34:23+02:00</time>
      </trkpt>
      <trkpt lat="45.32119" lon="4.77354">
        <ele>189</ele>
        <time>2022-04-07T08:34:42+02:00</time>
      </trkpt>
      <trkpt lat="45.3211" lon="4.77339">
        <ele>189</ele>
        <time>2022-04-07T08:34:49+02:00</time>
      </trkpt>
      <trkpt lat="45.32108" lon="4.7732">
        <ele>188</ele>
        <time>2022-04-07T08:34:56+02:00</time>
      </trkpt>
      <trkpt lat="45.32099" lon="4.77304">
        <ele>192</ele>
        <time>2022-04-07T08:35:14+02:00</time>
      </trkpt>
      <trkpt lat="45.32091" lon="4.77287">
        <ele>188</ele>
        <time>2022-04-07T08:35:20+02:00</time>
      </trkpt>
      <trkpt lat="45.32077" lon="4.77255">
        <ele>185</ele>
        <time>2022-04-07T08:35:43+02:00</time>
      </trkpt>
      <trkpt lat="45.32066" lon="4.77238">
        <ele>185</ele>
        <time>2022-04-07T08:35:58+02:00</time>
      </trkpt>
      <trkpt lat="45.3206" lon="4.77215">
        <ele>183</ele>
        <time>2022-04-07T08:36:08+02:00</time>
      </trkpt>
      <trkpt lat="45.32057" lon="4.77194">
        <ele>184</ele>
        <time>2022-04-07T08:36:25+02:00</time>
      </trkpt>
      <trkpt lat="45.32047" lon="4.77179">
        <ele>182</ele>
        <time>2022-04-07T08:36:34+02:00</time>
      </trkpt>
      <trkpt lat="45.32037" lon="4.77167">
        <ele>186</ele>
        <time>2022-04-07T08:36:41+02:00</time>
      </trkpt>
      <trkpt lat="45.32032" lon="4.77149">
        <ele>186</ele>
        <time>2022-04-07T08:36:58+02:00</time>
      </trkpt>
      <trkpt lat="45.32025" lon="4.77131">
        <ele>187</ele>
        <time>2022-04-07T08:37:07+02:00</time>
      </trkpt>
      <trkpt lat="45.32017" lon="4.77114">
        <ele>190</ele>
        <time>2022-04-07T08:37:17+02:00</time>
      </trkpt>
      <trkpt lat="45.32006" lon="4.77076">
        <ele>190</ele>
        <time>2022-04-07T08:37:42+02:00</time>
      </trkpt>
      <trkpt lat="45.31996" lon="4.77062">
        <ele>189</ele>
        <time>2022-04-07T08:37:50+02:00</time>
      </trkpt>
      <trkpt lat="45.31989" lon="4.77043">
        <ele>193</ele>
        <time>2022-04-07T08:38:02+02:00</time>
      </trkpt>
      <trkpt lat="45.3198" lon="4.77028">
        <ele>195</ele>
        <time>2022-04-07T08:38:11+02:00</time>
      </trkpt>
      <trkpt lat="45.31974" lon="4.77009">
        <ele>197</ele>
        <time>2022-04-07T08:38:21+02:00</time>
      </trkpt>
      <trkpt lat="45.31966" lon="4.76994">
        <ele>192</ele>
        <time>2022-04-07T08:38:33+02:00</time>
      </trkpt>
      <trkpt lat="45.31958" lon="4.76976">
        <ele>192</ele>
        <time>2022-04-07T08:38:50+02:00</time>
      </trkpt>
      <trkpt lat="45.31948" lon="4.76955">
        <ele>191</ele>
        <time>2022-04-07T08:38:53+02:00</time>
      </trkpt>
      <trkpt lat="45.31945" lon="4.76936">
        <ele>188</ele>
        <time>2022-04-07T08:39:11+02:00</time>
      </trkpt>
      <trkpt lat="45.31939" lon="4.76918">
        <ele>182</ele>
        <time>2022-04-07T08:39:34+02:00</time>
      </trkpt>
      <trkpt lat="45.31928" lon="4.76906">
        <ele>184</ele>
        <time>2022-04-07T08:39:39+02:00</time>
      </trkpt>
      <trkpt lat="45.31922" lon="4.76886">
        <ele>185</ele>
        <time>2022-04-07T08:39:47+02:00</time>
      </trkpt>
      <trkpt lat="45.31919" lon="4.76866">
        <ele>189</ele>
        <time>2022-04-07T08:39:59+02:00</time>
      </trkpt>
      <trkpt lat="45.31927" lon="4.76849">
        <ele>191</ele>
        <time>2022-04-07T08:40:11+02:00</time>
      </trkpt>
      <trkpt lat="45.31922" lon="4.76831">
        <ele>189</ele>
        <time>2022-04-07T08:40:32+02:00</time>
      </trkpt>
      <trkpt lat="45.31907" lon="4.76832">
        <ele>190</ele>
        <time>2022-04-07T08:40:43+02:00</time>
      </trkpt>
      <trkpt lat="45.31894" lon="4.76825">
        <ele>191</ele>
        <time>2022-04-07T08:40:55+02:00</time>
      </trkpt>
      <trkpt lat="45.31882" lon="4.76812">
        <ele>188</ele>
        <time>2022-04-07T08:41:08+02:00</time>
      </trkpt>
      <trkpt lat="45.31872" lon="4.76799">
        <ele>190</ele>
        <time>2022-04-07T08:41:23+02:00</time>
      </trkpt>
      <trkpt lat="45.31863" lon="4.76784">
        <ele>187</ele>
        <time>2022-04-07T08:41:38+02:00</time>
      </trkpt>
      <trkpt lat="45.31857" lon="4.76766">
        <ele>190</ele>
        <time>2022-04-07T08:42:27+02:00</time>
      </trkpt>
      <trkpt lat="45.3185" lon="4.76749">
        <ele>189</ele>
        <time>2022-04-07T08:42:41+02:00</time>
      </trkpt>
      <trkpt lat="45.31843" lon="4.76732">
        <ele>191</ele>
        <time>2022-04-07T08:42:51+02:00</time>
      </trkpt>
      <trkpt lat="45.31836" lon="4.76714">
        <ele>193</ele>
        <time>2022-04-07T08:43:01+02:00</time>
      </trkpt>
      <trkpt lat="45.31828" lon="4.76698">
        <ele>194</ele>
        <time>2022-04-07T08:43:12+02:00</time>
      </trkpt>
      <trkpt lat="45.3182" lon="4.76681">
        <ele>190</ele>
        <time>2022-04-07T08:43:23+02:00</time>
      </trkpt>
      <trkpt lat="45.31813" lon="4.76664">
        <ele>192</ele>
        <time>2022-04-07T08:43:34+02:00</time>
      </trkpt>
      <trkpt lat="45.31805" lon="4.76647">
        <ele>191</ele>
        <time>2022-04-07T08:43:57+02:00</time>
      </trkpt>
      <trkpt lat="45.31799" lon="4.76629">
        <ele>191</ele>
        <time>2022-04-07T08:44:14+02:00</time>
      </trkpt>
      <trkpt lat="45.31795" lon="4.76609">
        <ele>194</ele>
        <time>2022-04-07T08:44:24+02:00</time>
      </trkpt>
      <trkpt lat="45.31802" lon="4.76593">
        <ele>195</ele>
        <time>2022-04-07T08:44:43+02:00</time>
      </trkpt>
      <trkpt lat="45.31813" lon="4.76579">
        <ele>194</ele>
        <time>2022-04-07T08:44:55+02:00</time>
      </trkpt>
      <trkpt lat="45.31822" lon="4.76565">
        <ele>192</ele>
        <time>2022-04-07T08:45:07+02:00</time>
      </trkpt>
      <trkpt lat="45.31833" lon="4.76554">
        <ele>195</ele>
        <time>2022-04-07T08:45:18+02:00</time>
      </trkpt>
      <trkpt lat="45.31845" lon="4.76543">
        <ele>196</ele>
        <time>2022-04-07T08:45:29+02:00</time>
      </trkpt>
      <trkpt lat="45.31856" lon="4.76532">
        <ele>191</ele>
        <time>2022-04-07T08:45:41+02:00</time>
      </trkpt>
      <trkpt lat="45.31866" lon="4.76517">
        <ele>191</ele>
        <time>2022-04-07T08:45:54+02:00</time>
      </trkpt>
      <trkpt lat="45.31868" lon="4.76497">
        <ele>189</ele>
        <time>2022-04-07T08:46:06+02:00</time>
      </trkpt>
      <trkpt lat="45.31871" lon="4.76477">
        <ele>189</ele>
        <time>2022-04-07T08:46:20+02:00</time>
      </trkpt>
      <trkpt lat="45.31882" lon="4.76466">
        <ele>188</ele>
        <time>2022-04-07T08:46:32+02:00</time>
      </trkpt>
      <trkpt lat="45.31895" lon="4.76455">
        <ele>185</ele>
        <time>2022-04-07T08:46:44+02:00</time>
      </trkpt>
      <trkpt lat="45.31902" lon="4.76439">
        <ele>186</ele>
        <time>2022-04-07T08:46:57+02:00</time>
      </trkpt>
      <trkpt lat="45.31901" lon="4.764">
        <ele>184</ele>
        <time>2022-04-07T08:47:21+02:00</time>
      </trkpt>
      <trkpt lat="45.31902" lon="4.7638">
        <ele>185</ele>
        <time>2022-04-07T08:47:32+02:00</time>
      </trkpt>
      <trkpt lat="45.31902" lon="4.76361">
        <ele>185</ele>
        <time>2022-04-07T08:47:44+02:00</time>
      </trkpt>
      <trkpt lat="45.31902" lon="4.76341">
        <ele>185</ele>
        <time>2022-04-07T08:47:57+02:00</time>
      </trkpt>
      <trkpt lat="45.31898" lon="4.76322">
        <ele>189</ele>
        <time>2022-04-07T08:48:09+02:00</time>
      </trkpt>
      <trkpt lat="45.31898" lon="4.76342">
        <ele>194</ele>
        <time>2022-04-07T08:48:33+02:00</time>
      </trkpt>
      <trkpt lat="45.31901" lon="4.76361">
        <ele>192</ele>
        <time>2022-04-07T08:48:46+02:00</time>
      </trkpt>
      <trkpt lat="45.31901" lon="4.76381">
        <ele>188</ele>
        <time>2022-04-07T08:48:59+02:00</time>
      </trkpt>
      <trkpt lat="45.31902" lon="4.76402">
        <ele>189</ele>
        <time>2022-04-07T08:49:12+02:00</time>
      </trkpt>
      <trkpt lat="45.31901" lon="4.76422">
        <ele>192</ele>
        <time>2022-04-07T08:49:24+02:00</time>
      </trkpt>
      <trkpt lat="45.31903" lon="4.76442">
        <ele>191</ele>
        <time>2022-04-07T08:49:36+02:00</time>
      </trkpt>
      <trkpt lat="45.31894" lon="4.76458">
        <ele>194</ele>
        <time>2022-04-07T08:49:54+02:00</time>
      </trkpt>
      <trkpt lat="45.31883" lon="4.7647">
        <ele>192</ele>
        <time>2022-04-07T08:50:07+02:00</time>
      </trkpt>
      <trkpt lat="45.31871" lon="4.76481">
        <ele>191</ele>
        <time>2022-04-07T08:50:19+02:00</time>
      </trkpt>
      <trkpt lat="45.31861" lon="4.76494">
        <ele>195</ele>
        <time>2022-04-07T08:50:31+02:00</time>
      </trkpt>
      <trkpt lat="45.31848" lon="4.76502">
        <ele>193</ele>
        <time>2022-04-07T08:50:43+02:00</time>
      </trkpt>
      <trkpt lat="45.31837" lon="4.76515">
        <ele>195</ele>
        <time>2022-04-07T08:52:38+02:00</time>
      </trkpt>
      <trkpt lat="45.31851" lon="4.76518">
        <ele>204</ele>
        <time>2022-04-07T08:54:15+02:00</time>
      </trkpt>
      <trkpt lat="45.31861" lon="4.76503">
        <ele>199</ele>
        <time>2022-04-07T08:54:23+02:00</time>
      </trkpt>
      <trkpt lat="45.31869" lon="4.76486">
        <ele>196</ele>
        <time>2022-04-07T08:54:34+02:00</time>
      </trkpt>
      <trkpt lat="45.31881" lon="4.76475">
        <ele>195</ele>
        <time>2022-04-07T08:54:45+02:00</time>
      </trkpt>
      <trkpt lat="45.31892" lon="4.7646">
        <ele>191</ele>
        <time>2022-04-07T08:55:22+02:00</time>
      </trkpt>
      <trkpt lat="45.31903" lon="4.76448">
        <ele>189</ele>
        <time>2022-04-07T08:55:51+02:00</time>
      </trkpt>
      <trkpt lat="45.31905" lon="4.76428">
        <ele>193</ele>
        <time>2022-04-07T08:56:04+02:00</time>
      </trkpt>
      <trkpt lat="45.31906" lon="4.76408">
        <ele>189</ele>
        <time>2022-04-07T08:56:16+02:00</time>
      </trkpt>
      <trkpt lat="45.31905" lon="4.76388">
        <ele>190</ele>
        <time>2022-04-07T08:57:13+02:00</time>
      </trkpt>
      <trkpt lat="45.31906" lon="4.76367">
        <ele>191</ele>
        <time>2022-04-07T08:57:26+02:00</time>
      </trkpt>
      <trkpt lat="45.31905" lon="4.76348">
        <ele>191</ele>
        <time>2022-04-07T08:57:39+02:00</time>
      </trkpt>
      <trkpt lat="45.31901" lon="4.76328">
        <ele>186</ele>
        <time>2022-04-07T08:57:51+02:00</time>
      </trkpt>
      <trkpt lat="45.31893" lon="4.7631">
        <ele>185</ele>
        <time>2022-04-07T08:58:03+02:00</time>
      </trkpt>
      <trkpt lat="45.31886" lon="4.76292">
        <ele>185</ele>
        <time>2022-04-07T08:58:15+02:00</time>
      </trkpt>
      <trkpt lat="45.31876" lon="4.76278">
        <ele>189</ele>
        <time>2022-04-07T08:58:27+02:00</time>
      </trkpt>
      <trkpt lat="45.31874" lon="4.76258">
        <ele>194</ele>
        <time>2022-04-07T08:58:39+02:00</time>
      </trkpt>
      <trkpt lat="45.31868" lon="4.76239">
        <ele>202</ele>
        <time>2022-04-07T08:58:51+02:00</time>
      </trkpt>
      <trkpt lat="45.31859" lon="4.76224">
        <ele>194</ele>
        <time>2022-04-07T08:59:03+02:00</time>
      </trkpt>
      <trkpt lat="45.31859" lon="4.76205">
        <ele>203</ele>
        <time>2022-04-07T08:59:16+02:00</time>
      </trkpt>
      <trkpt lat="45.31865" lon="4.76187">
        <ele>204</ele>
        <time>2022-04-07T08:59:30+02:00</time>
      </trkpt>
      <trkpt lat="45.31879" lon="4.76188">
        <ele>205</ele>
        <time>2022-04-07T08:59:45+02:00</time>
      </trkpt>
      <trkpt lat="45.31892" lon="4.76192">
        <ele>205</ele>
        <time>2022-04-07T08:59:58+02:00</time>
      </trkpt>
      <trkpt lat="45.31906" lon="4.76189">
        <ele>206</ele>
        <time>2022-04-07T09:00:12+02:00</time>
      </trkpt>
      <trkpt lat="45.31912" lon="4.7617">
        <ele>202</ele>
        <time>2022-04-07T09:00:27+02:00</time>
      </trkpt>
      <trkpt lat="45.31914" lon="4.7615">
        <ele>201</ele>
        <time>2022-04-07T09:00:41+02:00</time>
      </trkpt>
      <trkpt lat="45.31924" lon="4.76136">
        <ele>200</ele>
        <time>2022-04-07T09:00:54+02:00</time>
      </trkpt>
      <trkpt lat="45.31935" lon="4.76123">
        <ele>202</ele>
        <time>2022-04-07T09:01:10+02:00</time>
      </trkpt>
      <trkpt lat="45.31946" lon="4.76111">
        <ele>200</ele>
        <time>2022-04-07T09:01:26+02:00</time>
      </trkpt>
      <trkpt lat="45.31958" lon="4.76102">
        <ele>201</ele>
        <time>2022-04-07T09:01:42+02:00</time>
      </trkpt>
      <trkpt lat="45.31969" lon="4.7609">
        <ele>204</ele>
        <time>2022-04-07T09:02:01+02:00</time>
      </trkpt>
      <trkpt lat="45.31981" lon="4.7608">
        <ele>207</ele>
        <time>2022-04-07T09:02:18+02:00</time>
      </trkpt>
      <trkpt lat="45.31993" lon="4.7607">
        <ele>211</ele>
        <time>2022-04-07T09:02:35+02:00</time>
      </trkpt>
      <trkpt lat="45.32006" lon="4.76063">
        <ele>208</ele>
        <time>2022-04-07T09:02:49+02:00</time>
      </trkpt>
      <trkpt lat="45.32019" lon="4.76056">
        <ele>213</ele>
        <time>2022-04-07T09:03:03+02:00</time>
      </trkpt>
      <trkpt lat="45.32032" lon="4.76053">
        <ele>223</ele>
        <time>2022-04-07T09:03:19+02:00</time>
      </trkpt>
      <trkpt lat="45.32045" lon="4.76045">
        <ele>224</ele>
        <time>2022-04-07T09:03:34+02:00</time>
      </trkpt>
      <trkpt lat="45.32056" lon="4.76034">
        <ele>227</ele>
        <time>2022-04-07T09:03:49+02:00</time>
      </trkpt>
      <trkpt lat="45.3207" lon="4.76023">
        <ele>221</ele>
        <time>2022-04-07T09:04:03+02:00</time>
      </trkpt>
      <trkpt lat="45.32081" lon="4.76012">
        <ele>219</ele>
        <time>2022-04-07T09:04:17+02:00</time>
      </trkpt>
      <trkpt lat="45.32092" lon="4.75998">
        <ele>224</ele>
        <time>2022-04-07T09:04:36+02:00</time>
      </trkpt>
      <trkpt lat="45.32103" lon="4.75988">
        <ele>232</ele>
        <time>2022-04-07T09:04:55+02:00</time>
      </trkpt>
      <trkpt lat="45.32116" lon="4.75979">
        <ele>236</ele>
        <time>2022-04-07T09:05:08+02:00</time>
      </trkpt>
      <trkpt lat="45.32125" lon="4.75963">
        <ele>238</ele>
        <time>2022-04-07T09:05:22+02:00</time>
      </trkpt>
      <trkpt lat="45.32137" lon="4.75929">
        <ele>241</ele>
        <time>2022-04-07T09:05:51+02:00</time>
      </trkpt>
      <trkpt lat="45.32146" lon="4.75913">
        <ele>243</ele>
        <time>2022-04-07T09:06:07+02:00</time>
      </trkpt>
      <trkpt lat="45.32157" lon="4.75901">
        <ele>248</ele>
        <time>2022-04-07T09:06:22+02:00</time>
      </trkpt>
      <trkpt lat="45.3217" lon="4.75894">
        <ele>254</ele>
        <time>2022-04-07T09:06:36+02:00</time>
      </trkpt>
      <trkpt lat="45.32181" lon="4.75881">
        <ele>246</ele>
        <time>2022-04-07T09:06:48+02:00</time>
      </trkpt>
      <trkpt lat="45.32189" lon="4.75864">
        <ele>244</ele>
        <time>2022-04-07T09:07:00+02:00</time>
      </trkpt>
      <trkpt lat="45.32195" lon="4.75847">
        <ele>245</ele>
        <time>2022-04-07T09:07:14+02:00</time>
      </trkpt>
      <trkpt lat="45.32202" lon="4.7583">
        <ele>246</ele>
        <time>2022-04-07T09:07:27+02:00</time>
      </trkpt>
      <trkpt lat="45.3221" lon="4.75814">
        <ele>248</ele>
        <time>2022-04-07T09:07:40+02:00</time>
      </trkpt>
      <trkpt lat="45.32218" lon="4.75798">
        <ele>251</ele>
        <time>2022-04-07T09:07:54+02:00</time>
      </trkpt>
      <trkpt lat="45.32221" lon="4.75779">
        <ele>255</ele>
        <time>2022-04-07T09:08:11+02:00</time>
      </trkpt>
      <trkpt lat="45.32219" lon="4.75759">
        <ele>254</ele>
        <time>2022-04-07T09:08:29+02:00</time>
      </trkpt>
      <trkpt lat="45.32217" lon="4.7574">
        <ele>260</ele>
        <time>2022-04-07T09:08:44+02:00</time>
      </trkpt>
      <trkpt lat="45.32209" lon="4.75725">
        <ele>262</ele>
        <time>2022-04-07T09:08:58+02:00</time>
      </trkpt>
      <trkpt lat="45.32198" lon="4.75711">
        <ele>264</ele>
        <time>2022-04-07T09:09:13+02:00</time>
      </trkpt>
      <trkpt lat="45.32186" lon="4.757">
        <ele>264</ele>
        <time>2022-04-07T09:09:29+02:00</time>
      </trkpt>
      <trkpt lat="45.32181" lon="4.75682">
        <ele>270</ele>
        <time>2022-04-07T09:09:47+02:00</time>
      </trkpt>
      <trkpt lat="45.3219" lon="4.75669">
        <ele>271</ele>
        <time>2022-04-07T09:10:01+02:00</time>
      </trkpt>
      <trkpt lat="45.322" lon="4.75656">
        <ele>275</ele>
        <time>2022-04-07T09:10:17+02:00</time>
      </trkpt>
      <trkpt lat="45.32211" lon="4.75644">
        <ele>278</ele>
        <time>2022-04-07T09:10:31+02:00</time>
      </trkpt>
      <trkpt lat="45.32224" lon="4.75638">
        <ele>277</ele>
        <time>2022-04-07T09:10:45+02:00</time>
      </trkpt>
      <trkpt lat="45.32238" lon="4.75636">
        <ele>281</ele>
        <time>2022-04-07T09:10:58+02:00</time>
      </trkpt>
      <trkpt lat="45.32252" lon="4.75636">
        <ele>285</ele>
        <time>2022-04-07T09:11:12+02:00</time>
      </trkpt>
      <trkpt lat="45.32265" lon="4.75642">
        <ele>286</ele>
        <time>2022-04-07T09:11:25+02:00</time>
      </trkpt>
      <trkpt lat="45.32278" lon="4.75648">
        <ele>286</ele>
        <time>2022-04-07T09:11:38+02:00</time>
      </trkpt>
      <trkpt lat="45.32292" lon="4.75653">
        <ele>288</ele>
        <time>2022-04-07T09:11:52+02:00</time>
      </trkpt>
      <trkpt lat="45.32305" lon="4.75656">
        <ele>285</ele>
        <time>2022-04-07T09:12:05+02:00</time>
      </trkpt>
      <trkpt lat="45.3232" lon="4.75658">
        <ele>283</ele>
        <time>2022-04-07T09:12:18+02:00</time>
      </trkpt>
      <trkpt lat="45.32317" lon="4.75638">
        <ele>289</ele>
        <time>2022-04-07T09:12:40+02:00</time>
      </trkpt>
      <trkpt lat="45.32303" lon="4.75605">
        <ele>294</ele>
        <time>2022-04-07T09:13:11+02:00</time>
      </trkpt>
      <trkpt lat="45.32294" lon="4.7559">
        <ele>294</ele>
        <time>2022-04-07T09:13:26+02:00</time>
      </trkpt>
      <trkpt lat="45.32286" lon="4.75573">
        <ele>292</ele>
        <time>2022-04-07T09:13:41+02:00</time>
      </trkpt>
      <trkpt lat="45.3228" lon="4.75555">
        <ele>290</ele>
        <time>2022-04-07T09:13:57+02:00</time>
      </trkpt>
      <trkpt lat="45.32273" lon="4.75537">
        <ele>289</ele>
        <time>2022-04-07T09:14:11+02:00</time>
      </trkpt>
      <trkpt lat="45.32263" lon="4.75522">
        <ele>294</ele>
        <time>2022-04-07T09:14:29+02:00</time>
      </trkpt>
      <trkpt lat="45.32259" lon="4.75504">
        <ele>299</ele>
        <time>2022-04-07T09:14:41+02:00</time>
      </trkpt>
      <trkpt lat="45.32253" lon="4.75485">
        <ele>297</ele>
        <time>2022-04-07T09:14:54+02:00</time>
      </trkpt>
      <trkpt lat="45.32247" lon="4.75468">
        <ele>300</ele>
        <time>2022-04-07T09:15:07+02:00</time>
      </trkpt>
      <trkpt lat="45.32238" lon="4.75452">
        <ele>305</ele>
        <time>2022-04-07T09:15:20+02:00</time>
      </trkpt>
      <trkpt lat="45.32249" lon="4.75426">
        <ele>308</ele>
        <time>2022-04-07T09:15:47+02:00</time>
      </trkpt>
      <trkpt lat="45.32263" lon="4.75428">
        <ele>304</ele>
        <time>2022-04-07T09:16:01+02:00</time>
      </trkpt>
      <trkpt lat="45.32276" lon="4.75435">
        <ele>303</ele>
        <time>2022-04-07T09:16:14+02:00</time>
      </trkpt>
      <trkpt lat="45.32287" lon="4.75445">
        <ele>300</ele>
        <time>2022-04-07T09:16:26+02:00</time>
      </trkpt>
      <trkpt lat="45.32299" lon="4.75458">
        <ele>301</ele>
        <time>2022-04-07T09:16:39+02:00</time>
      </trkpt>
      <trkpt lat="45.32308" lon="4.75473">
        <ele>302</ele>
        <time>2022-04-07T09:16:51+02:00</time>
      </trkpt>
      <trkpt lat="45.32319" lon="4.75485">
        <ele>305</ele>
        <time>2022-04-07T09:17:05+02:00</time>
      </trkpt>
      <trkpt lat="45.32331" lon="4.75492">
        <ele>304</ele>
        <time>2022-04-07T09:17:18+02:00</time>
      </trkpt>
      <trkpt lat="45.32344" lon="4.75498">
        <ele>306</ele>
        <time>2022-04-07T09:17:31+02:00</time>
      </trkpt>
      <trkpt lat="45.32358" lon="4.75499">
        <ele>309</ele>
        <time>2022-04-07T09:17:45+02:00</time>
      </trkpt>
      <trkpt lat="45.32371" lon="4.75492">
        <ele>312</ele>
        <time>2022-04-07T09:17:59+02:00</time>
      </trkpt>
      <trkpt lat="45.32381" lon="4.75479">
        <ele>316</ele>
        <time>2022-04-07T09:18:13+02:00</time>
      </trkpt>
      <trkpt lat="45.32392" lon="4.75467">
        <ele>317</ele>
        <time>2022-04-07T09:18:27+02:00</time>
      </trkpt>
      <trkpt lat="45.32404" lon="4.75456">
        <ele>319</ele>
        <time>2022-04-07T09:18:41+02:00</time>
      </trkpt>
      <trkpt lat="45.32415" lon="4.75444">
        <ele>322</ele>
        <time>2022-04-07T09:18:55+02:00</time>
      </trkpt>
      <trkpt lat="45.32427" lon="4.75434">
        <ele>323</ele>
        <time>2022-04-07T09:19:09+02:00</time>
      </trkpt>
      <trkpt lat="45.32439" lon="4.75426">
        <ele>322</ele>
        <time>2022-04-07T09:19:22+02:00</time>
      </trkpt>
      <trkpt lat="45.32454" lon="4.75422">
        <ele>324</ele>
        <time>2022-04-07T09:19:36+02:00</time>
      </trkpt>
      <trkpt lat="45.32467" lon="4.75427">
        <ele>324</ele>
        <time>2022-04-07T09:19:58+02:00</time>
      </trkpt>
      <trkpt lat="45.32478" lon="4.7544">
        <ele>329</ele>
        <time>2022-04-07T09:20:13+02:00</time>
      </trkpt>
      <trkpt lat="45.32481" lon="4.75421">
        <ele>328</ele>
        <time>2022-04-07T09:21:59+02:00</time>
      </trkpt>
      <trkpt lat="45.32493" lon="4.75411">
        <ele>330</ele>
        <time>2022-04-07T09:22:13+02:00</time>
      </trkpt>
      <trkpt lat="45.32501" lon="4.75396">
        <ele>332</ele>
        <time>2022-04-07T09:22:27+02:00</time>
      </trkpt>
      <trkpt lat="45.3251" lon="4.7538">
        <ele>335</ele>
        <time>2022-04-07T09:22:42+02:00</time>
      </trkpt>
      <trkpt lat="45.3252" lon="4.75366">
        <ele>336</ele>
        <time>2022-04-07T09:22:57+02:00</time>
      </trkpt>
      <trkpt lat="45.32533" lon="4.75357">
        <ele>338</ele>
        <time>2022-04-07T09:23:12+02:00</time>
      </trkpt>
      <trkpt lat="45.32542" lon="4.75343">
        <ele>343</ele>
        <time>2022-04-07T09:23:44+02:00</time>
      </trkpt>
      <trkpt lat="45.32543" lon="4.75323">
        <ele>347</ele>
        <time>2022-04-07T09:24:01+02:00</time>
      </trkpt>
      <trkpt lat="45.32542" lon="4.75304">
        <ele>352</ele>
        <time>2022-04-07T09:24:16+02:00</time>
      </trkpt>
      <trkpt lat="45.3254" lon="4.75284">
        <ele>355</ele>
        <time>2022-04-07T09:24:31+02:00</time>
      </trkpt>
      <trkpt lat="45.32539" lon="4.75265">
        <ele>355</ele>
        <time>2022-04-07T09:24:45+02:00</time>
      </trkpt>
      <trkpt lat="45.32543" lon="4.75246">
        <ele>354</ele>
        <time>2022-04-07T09:24:59+02:00</time>
      </trkpt>
      <trkpt lat="45.32548" lon="4.75227">
        <ele>355</ele>
        <time>2022-04-07T09:25:12+02:00</time>
      </trkpt>
      <trkpt lat="45.32552" lon="4.75209">
        <ele>354</ele>
        <time>2022-04-07T09:25:24+02:00</time>
      </trkpt>
      <trkpt lat="45.32556" lon="4.75189">
        <ele>356</ele>
        <time>2022-04-07T09:25:36+02:00</time>
      </trkpt>
      <trkpt lat="45.3256" lon="4.7517">
        <ele>356</ele>
        <time>2022-04-07T09:25:49+02:00</time>
      </trkpt>
      <trkpt lat="45.32565" lon="4.75151">
        <ele>358</ele>
        <time>2022-04-07T09:26:01+02:00</time>
      </trkpt>
      <trkpt lat="45.32569" lon="4.75131">
        <ele>358</ele>
        <time>2022-04-07T09:26:14+02:00</time>
      </trkpt>
      <trkpt lat="45.32573" lon="4.75112">
        <ele>357</ele>
        <time>2022-04-07T09:26:26+02:00</time>
      </trkpt>
      <trkpt lat="45.32579" lon="4.75095">
        <ele>359</ele>
        <time>2022-04-07T09:26:38+02:00</time>
      </trkpt>
      <trkpt lat="45.32582" lon="4.75075">
        <ele>359</ele>
        <time>2022-04-07T09:26:50+02:00</time>
      </trkpt>
      <trkpt lat="45.32579" lon="4.75055">
        <ele>361</ele>
        <time>2022-04-07T09:27:03+02:00</time>
      </trkpt>
      <trkpt lat="45.32576" lon="4.75036">
        <ele>364</ele>
        <time>2022-04-07T09:27:16+02:00</time>
      </trkpt>
      <trkpt lat="45.32568" lon="4.7502">
        <ele>363</ele>
        <time>2022-04-07T09:27:27+02:00</time>
      </trkpt>
      <trkpt lat="45.32556" lon="4.75007">
        <ele>361</ele>
        <time>2022-04-07T09:27:40+02:00</time>
      </trkpt>
      <trkpt lat="45.32543" lon="4.74999">
        <ele>362</ele>
        <time>2022-04-07T09:27:53+02:00</time>
      </trkpt>
      <trkpt lat="45.3253" lon="4.7499">
        <ele>364</ele>
        <time>2022-04-07T09:28:06+02:00</time>
      </trkpt>
      <trkpt lat="45.32518" lon="4.7498">
        <ele>366</ele>
        <time>2022-04-07T09:28:19+02:00</time>
      </trkpt>
      <trkpt lat="45.32508" lon="4.74966">
        <ele>368</ele>
        <time>2022-04-07T09:28:32+02:00</time>
      </trkpt>
      <trkpt lat="45.32506" lon="4.74946">
        <ele>372</ele>
        <time>2022-04-07T09:28:44+02:00</time>
      </trkpt>
      <trkpt lat="45.32508" lon="4.74908">
        <ele>377</ele>
        <time>2022-04-07T09:29:10+02:00</time>
      </trkpt>
      <trkpt lat="45.32515" lon="4.74891">
        <ele>378</ele>
        <time>2022-04-07T09:29:24+02:00</time>
      </trkpt>
      <trkpt lat="45.32525" lon="4.74877">
        <ele>377</ele>
        <time>2022-04-07T09:29:38+02:00</time>
      </trkpt>
      <trkpt lat="45.32533" lon="4.74861">
        <ele>378</ele>
        <time>2022-04-07T09:29:50+02:00</time>
      </trkpt>
      <trkpt lat="45.32538" lon="4.74842">
        <ele>377</ele>
        <time>2022-04-07T09:30:02+02:00</time>
      </trkpt>
      <trkpt lat="45.32541" lon="4.74823">
        <ele>377</ele>
        <time>2022-04-07T09:30:14+02:00</time>
      </trkpt>
      <trkpt lat="45.32545" lon="4.74804">
        <ele>376</ele>
        <time>2022-04-07T09:30:26+02:00</time>
      </trkpt>
      <trkpt lat="45.32548" lon="4.74785">
        <ele>377</ele>
        <time>2022-04-07T09:30:38+02:00</time>
      </trkpt>
      <trkpt lat="45.3255" lon="4.74766">
        <ele>377</ele>
        <time>2022-04-07T09:30:50+02:00</time>
      </trkpt>
      <trkpt lat="45.32551" lon="4.74746">
        <ele>377</ele>
        <time>2022-04-07T09:31:02+02:00</time>
      </trkpt>
      <trkpt lat="45.32551" lon="4.74726">
        <ele>379</ele>
        <time>2022-04-07T09:31:14+02:00</time>
      </trkpt>
      <trkpt lat="45.32551" lon="4.74706">
        <ele>380</ele>
        <time>2022-04-07T09:31:25+02:00</time>
      </trkpt>
      <trkpt lat="45.3255" lon="4.74687">
        <ele>380</ele>
        <time>2022-04-07T09:31:37+02:00</time>
      </trkpt>
      <trkpt lat="45.32549" lon="4.74666">
        <ele>381</ele>
        <time>2022-04-07T09:31:49+02:00</time>
      </trkpt>
      <trkpt lat="45.3255" lon="4.74647">
        <ele>384</ele>
        <time>2022-04-07T09:32:02+02:00</time>
      </trkpt>
      <trkpt lat="45.32551" lon="4.74627">
        <ele>384</ele>
        <time>2022-04-07T09:32:15+02:00</time>
      </trkpt>
      <trkpt lat="45.32561" lon="4.74614">
        <ele>383</ele>
        <time>2022-04-07T09:32:27+02:00</time>
      </trkpt>
      <trkpt lat="45.32574" lon="4.74612">
        <ele>380</ele>
        <time>2022-04-07T09:32:42+02:00</time>
      </trkpt>
      <trkpt lat="45.32588" lon="4.7461">
        <ele>383</ele>
        <time>2022-04-07T09:32:55+02:00</time>
      </trkpt>
      <trkpt lat="45.32601" lon="4.74603">
        <ele>385</ele>
        <time>2022-04-07T09:33:09+02:00</time>
      </trkpt>
      <trkpt lat="45.32612" lon="4.74591">
        <ele>389</ele>
        <time>2022-04-07T09:33:23+02:00</time>
      </trkpt>
      <trkpt lat="45.32624" lon="4.74579">
        <ele>392</ele>
        <time>2022-04-07T09:33:36+02:00</time>
      </trkpt>
      <trkpt lat="45.32636" lon="4.7457">
        <ele>392</ele>
        <time>2022-04-07T09:33:49+02:00</time>
      </trkpt>
      <trkpt lat="45.3265" lon="4.74569">
        <ele>391</ele>
        <time>2022-04-07T09:34:03+02:00</time>
      </trkpt>
      <trkpt lat="45.32664" lon="4.74575">
        <ele>392</ele>
        <time>2022-04-07T09:34:16+02:00</time>
      </trkpt>
      <trkpt lat="45.32677" lon="4.74581">
        <ele>393</ele>
        <time>2022-04-07T09:34:29+02:00</time>
      </trkpt>
      <trkpt lat="45.3269" lon="4.74573">
        <ele>394</ele>
        <time>2022-04-07T09:34:56+02:00</time>
      </trkpt>
      <trkpt lat="45.32703" lon="4.74567">
        <ele>395</ele>
        <time>2022-04-07T09:36:23+02:00</time>
      </trkpt>
      <trkpt lat="45.32708" lon="4.74548">
        <ele>395</ele>
        <time>2022-04-07T09:36:36+02:00</time>
      </trkpt>
      <trkpt lat="45.32709" lon="4.74527">
        <ele>397</ele>
        <time>2022-04-07T09:36:49+02:00</time>
      </trkpt>
      <trkpt lat="45.32711" lon="4.74508">
        <ele>398</ele>
        <time>2022-04-07T09:37:01+02:00</time>
      </trkpt>
      <trkpt lat="45.32711" lon="4.74488">
        <ele>394</ele>
        <time>2022-04-07T09:37:14+02:00</time>
      </trkpt>
      <trkpt lat="45.32711" lon="4.74468">
        <ele>396</ele>
        <time>2022-04-07T09:37:27+02:00</time>
      </trkpt>
      <trkpt lat="45.32712" lon="4.74448">
        <ele>399</ele>
        <time>2022-04-07T09:37:40+02:00</time>
      </trkpt>
      <trkpt lat="45.32711" lon="4.74428">
        <ele>397</ele>
        <time>2022-04-07T09:37:53+02:00</time>
      </trkpt>
      <trkpt lat="45.32717" lon="4.74409">
        <ele>400</ele>
        <time>2022-04-07T09:38:06+02:00</time>
      </trkpt>
      <trkpt lat="45.32723" lon="4.74391">
        <ele>403</ele>
        <time>2022-04-07T09:38:18+02:00</time>
      </trkpt>
      <trkpt lat="45.32733" lon="4.74376">
        <ele>408</ele>
        <time>2022-04-07T09:38:31+02:00</time>
      </trkpt>
      <trkpt lat="45.32736" lon="4.74357">
        <ele>406</ele>
        <time>2022-04-07T09:38:52+02:00</time>
      </trkpt>
      <trkpt lat="45.32733" lon="4.74338">
        <ele>411</ele>
        <time>2022-04-07T09:39:05+02:00</time>
      </trkpt>
      <trkpt lat="45.32724" lon="4.74323">
        <ele>402</ele>
        <time>2022-04-07T09:39:27+02:00</time>
      </trkpt>
      <trkpt lat="45.32718" lon="4.74305">
        <ele>402</ele>
        <time>2022-04-07T09:39:34+02:00</time>
      </trkpt>
      <trkpt lat="45.32713" lon="4.74286">
        <ele>403</ele>
        <time>2022-04-07T09:39:44+02:00</time>
      </trkpt>
      <trkpt lat="45.32704" lon="4.74271">
        <ele>404</ele>
        <time>2022-04-07T09:39:57+02:00</time>
      </trkpt>
      <trkpt lat="45.32691" lon="4.74266">
        <ele>406</ele>
        <time>2022-04-07T09:40:09+02:00</time>
      </trkpt>
      <trkpt lat="45.32676" lon="4.74263">
        <ele>401</ele>
        <time>2022-04-07T09:40:28+02:00</time>
      </trkpt>
      <trkpt lat="45.32663" lon="4.74252">
        <ele>403</ele>
        <time>2022-04-07T09:40:36+02:00</time>
      </trkpt>
      <trkpt lat="45.32651" lon="4.74243">
        <ele>401</ele>
        <time>2022-04-07T09:40:46+02:00</time>
      </trkpt>
      <trkpt lat="45.32637" lon="4.7424">
        <ele>401</ele>
        <time>2022-04-07T09:40:58+02:00</time>
      </trkpt>
      <trkpt lat="45.32623" lon="4.74234">
        <ele>400</ele>
        <time>2022-04-07T09:41:12+02:00</time>
      </trkpt>
      <trkpt lat="45.3261" lon="4.74227">
        <ele>400</ele>
        <time>2022-04-07T09:41:23+02:00</time>
      </trkpt>
      <trkpt lat="45.32597" lon="4.7422">
        <ele>398</ele>
        <time>2022-04-07T09:41:35+02:00</time>
      </trkpt>
      <trkpt lat="45.32585" lon="4.7421">
        <ele>398</ele>
        <time>2022-04-07T09:41:46+02:00</time>
      </trkpt>
      <trkpt lat="45.32575" lon="4.74195">
        <ele>399</ele>
        <time>2022-04-07T09:41:58+02:00</time>
      </trkpt>
      <trkpt lat="45.32565" lon="4.7418">
        <ele>399</ele>
        <time>2022-04-07T09:42:09+02:00</time>
      </trkpt>
      <trkpt lat="45.32554" lon="4.74167">
        <ele>400</ele>
        <time>2022-04-07T09:42:21+02:00</time>
      </trkpt>
      <trkpt lat="45.32543" lon="4.74155">
        <ele>399</ele>
        <time>2022-04-07T09:42:33+02:00</time>
      </trkpt>
      <trkpt lat="45.32534" lon="4.7414">
        <ele>401</ele>
        <time>2022-04-07T09:42:44+02:00</time>
      </trkpt>
      <trkpt lat="45.32526" lon="4.74123">
        <ele>404</ele>
        <time>2022-04-07T09:42:58+02:00</time>
      </trkpt>
      <trkpt lat="45.32514" lon="4.74114">
        <ele>403</ele>
        <time>2022-04-07T09:43:10+02:00</time>
      </trkpt>
      <trkpt lat="45.32502" lon="4.74102">
        <ele>404</ele>
        <time>2022-04-07T09:43:24+02:00</time>
      </trkpt>
      <trkpt lat="45.3249" lon="4.74092">
        <ele>403</ele>
        <time>2022-04-07T09:43:36+02:00</time>
      </trkpt>
      <trkpt lat="45.32476" lon="4.74085">
        <ele>402</ele>
        <time>2022-04-07T09:43:47+02:00</time>
      </trkpt>
      <trkpt lat="45.32464" lon="4.74077">
        <ele>405</ele>
        <time>2022-04-07T09:43:59+02:00</time>
      </trkpt>
      <trkpt lat="45.32451" lon="4.74068">
        <ele>406</ele>
        <time>2022-04-07T09:44:12+02:00</time>
      </trkpt>
      <trkpt lat="45.3244" lon="4.74057">
        <ele>406</ele>
        <time>2022-04-07T09:44:26+02:00</time>
      </trkpt>
      <trkpt lat="45.32433" lon="4.7404">
        <ele>405</ele>
        <time>2022-04-07T09:44:39+02:00</time>
      </trkpt>
      <trkpt lat="45.32425" lon="4.74023">
        <ele>402</ele>
        <time>2022-04-07T09:44:52+02:00</time>
      </trkpt>
      <trkpt lat="45.32417" lon="4.74006">
        <ele>399</ele>
        <time>2022-04-07T09:45:05+02:00</time>
      </trkpt>
      <trkpt lat="45.32412" lon="4.73987">
        <ele>400</ele>
        <time>2022-04-07T09:45:17+02:00</time>
      </trkpt>
      <trkpt lat="45.32407" lon="4.73968">
        <ele>399</ele>
        <time>2022-04-07T09:45:30+02:00</time>
      </trkpt>
      <trkpt lat="45.32402" lon="4.73949">
        <ele>400</ele>
        <time>2022-04-07T09:45:42+02:00</time>
      </trkpt>
      <trkpt lat="45.32399" lon="4.7393">
        <ele>400</ele>
        <time>2022-04-07T09:45:54+02:00</time>
      </trkpt>
      <trkpt lat="45.32399" lon="4.73909">
        <ele>402</ele>
        <time>2022-04-07T09:46:06+02:00</time>
      </trkpt>
      <trkpt lat="45.324" lon="4.7389">
        <ele>403</ele>
        <time>2022-04-07T09:46:17+02:00</time>
      </trkpt>
      <trkpt lat="45.32402" lon="4.73869">
        <ele>403</ele>
        <time>2022-04-07T09:46:30+02:00</time>
      </trkpt>
      <trkpt lat="45.32399" lon="4.73849">
        <ele>407</ele>
        <time>2022-04-07T09:46:43+02:00</time>
      </trkpt>
      <trkpt lat="45.32391" lon="4.73831">
        <ele>406</ele>
        <time>2022-04-07T09:46:55+02:00</time>
      </trkpt>
      <trkpt lat="45.3238" lon="4.73818">
        <ele>405</ele>
        <time>2022-04-07T09:47:07+02:00</time>
      </trkpt>
      <trkpt lat="45.3237" lon="4.73804">
        <ele>406</ele>
        <time>2022-04-07T09:47:21+02:00</time>
      </trkpt>
      <trkpt lat="45.32359" lon="4.73793">
        <ele>405</ele>
        <time>2022-04-07T09:47:35+02:00</time>
      </trkpt>
      <trkpt lat="45.32349" lon="4.73778">
        <ele>406</ele>
        <time>2022-04-07T09:47:48+02:00</time>
      </trkpt>
      <trkpt lat="45.32339" lon="4.73764">
        <ele>406</ele>
        <time>2022-04-07T09:48:00+02:00</time>
      </trkpt>
      <trkpt lat="45.32328" lon="4.73752">
        <ele>404</ele>
        <time>2022-04-07T09:48:12+02:00</time>
      </trkpt>
      <trkpt lat="45.32319" lon="4.73736">
        <ele>404</ele>
        <time>2022-04-07T09:48:24+02:00</time>
      </trkpt>
      <trkpt lat="45.32313" lon="4.73718">
        <ele>404</ele>
        <time>2022-04-07T09:48:36+02:00</time>
      </trkpt>
      <trkpt lat="45.32305" lon="4.73701">
        <ele>405</ele>
        <time>2022-04-07T09:48:48+02:00</time>
      </trkpt>
      <trkpt lat="45.32299" lon="4.73683">
        <ele>407</ele>
        <time>2022-04-07T09:49:00+02:00</time>
      </trkpt>
      <trkpt lat="45.32289" lon="4.73668">
        <ele>406</ele>
        <time>2022-04-07T09:49:11+02:00</time>
      </trkpt>
      <trkpt lat="45.32279" lon="4.73653">
        <ele>407</ele>
        <time>2022-04-07T09:49:23+02:00</time>
      </trkpt>
      <trkpt lat="45.32268" lon="4.73642">
        <ele>407</ele>
        <time>2022-04-07T09:49:34+02:00</time>
      </trkpt>
      <trkpt lat="45.32258" lon="4.73628">
        <ele>406</ele>
        <time>2022-04-07T09:49:46+02:00</time>
      </trkpt>
      <trkpt lat="45.32246" lon="4.73617">
        <ele>405</ele>
        <time>2022-04-07T09:49:57+02:00</time>
      </trkpt>
      <trkpt lat="45.32235" lon="4.73605">
        <ele>406</ele>
        <time>2022-04-07T09:50:09+02:00</time>
      </trkpt>
      <trkpt lat="45.32224" lon="4.73594">
        <ele>406</ele>
        <time>2022-04-07T09:50:20+02:00</time>
      </trkpt>
      <trkpt lat="45.32213" lon="4.73581">
        <ele>408</ele>
        <time>2022-04-07T09:50:32+02:00</time>
      </trkpt>
      <trkpt lat="45.32203" lon="4.73567">
        <ele>408</ele>
        <time>2022-04-07T09:50:44+02:00</time>
      </trkpt>
      <trkpt lat="45.32192" lon="4.73555">
        <ele>410</ele>
        <time>2022-04-07T09:50:56+02:00</time>
      </trkpt>
      <trkpt lat="45.32182" lon="4.73542">
        <ele>412</ele>
        <time>2022-04-07T09:51:08+02:00</time>
      </trkpt>
      <trkpt lat="45.32171" lon="4.73529">
        <ele>413</ele>
        <time>2022-04-07T09:51:20+02:00</time>
      </trkpt>
      <trkpt lat="45.32162" lon="4.73514">
        <ele>414</ele>
        <time>2022-04-07T09:51:32+02:00</time>
      </trkpt>
      <trkpt lat="45.32153" lon="4.73499">
        <ele>415</ele>
        <time>2022-04-07T09:51:45+02:00</time>
      </trkpt>
      <trkpt lat="45.32145" lon="4.73482">
        <ele>417</ele>
        <time>2022-04-07T09:51:57+02:00</time>
      </trkpt>
      <trkpt lat="45.32135" lon="4.73467">
        <ele>418</ele>
        <time>2022-04-07T09:52:09+02:00</time>
      </trkpt>
      <trkpt lat="45.32127" lon="4.73452">
        <ele>421</ele>
        <time>2022-04-07T09:52:21+02:00</time>
      </trkpt>
      <trkpt lat="45.32117" lon="4.73438">
        <ele>420</ele>
        <time>2022-04-07T09:52:33+02:00</time>
      </trkpt>
      <trkpt lat="45.32106" lon="4.73426">
        <ele>420</ele>
        <time>2022-04-07T09:52:44+02:00</time>
      </trkpt>
      <trkpt lat="45.32096" lon="4.73412">
        <ele>419</ele>
        <time>2022-04-07T09:52:56+02:00</time>
      </trkpt>
      <trkpt lat="45.32086" lon="4.734">
        <ele>418</ele>
        <time>2022-04-07T09:53:07+02:00</time>
      </trkpt>
      <trkpt lat="45.32076" lon="4.73386">
        <ele>420</ele>
        <time>2022-04-07T09:53:18+02:00</time>
      </trkpt>
      <trkpt lat="45.32063" lon="4.73378">
        <ele>421</ele>
        <time>2022-04-07T09:53:30+02:00</time>
      </trkpt>
      <trkpt lat="45.32051" lon="4.73386">
        <ele>419</ele>
        <time>2022-04-07T09:53:44+02:00</time>
      </trkpt>
      <trkpt lat="45.3204" lon="4.734">
        <ele>422</ele>
        <time>2022-04-07T09:53:57+02:00</time>
      </trkpt>
      <trkpt lat="45.32027" lon="4.73411">
        <ele>421</ele>
        <time>2022-04-07T09:54:10+02:00</time>
      </trkpt>
      <trkpt lat="45.32016" lon="4.73421">
        <ele>420</ele>
        <time>2022-04-07T09:54:22+02:00</time>
      </trkpt>
      <trkpt lat="45.32003" lon="4.73427">
        <ele>426</ele>
        <time>2022-04-07T09:54:35+02:00</time>
      </trkpt>
      <trkpt lat="45.3199" lon="4.73434">
        <ele>425</ele>
        <time>2022-04-07T09:54:47+02:00</time>
      </trkpt>
      <trkpt lat="45.31977" lon="4.73443">
        <ele>427</ele>
        <time>2022-04-07T09:54:59+02:00</time>
      </trkpt>
      <trkpt lat="45.31964" lon="4.73448">
        <ele>426</ele>
        <time>2022-04-07T09:55:10+02:00</time>
      </trkpt>
      <trkpt lat="45.3195" lon="4.73454">
        <ele>425</ele>
        <time>2022-04-07T09:55:22+02:00</time>
      </trkpt>
      <trkpt lat="45.31936" lon="4.73459">
        <ele>425</ele>
        <time>2022-04-07T09:55:34+02:00</time>
      </trkpt>
      <trkpt lat="45.31923" lon="4.73462">
        <ele>423</ele>
        <time>2022-04-07T09:55:46+02:00</time>
      </trkpt>
      <trkpt lat="45.31909" lon="4.73463">
        <ele>420</ele>
        <time>2022-04-07T09:55:58+02:00</time>
      </trkpt>
      <trkpt lat="45.31894" lon="4.73462">
        <ele>425</ele>
        <time>2022-04-07T09:56:10+02:00</time>
      </trkpt>
      <trkpt lat="45.3188" lon="4.73459">
        <ele>426</ele>
        <time>2022-04-07T09:56:22+02:00</time>
      </trkpt>
      <trkpt lat="45.31867" lon="4.7346">
        <ele>424</ele>
        <time>2022-04-07T09:56:33+02:00</time>
      </trkpt>
      <trkpt lat="45.31854" lon="4.73465">
        <ele>424</ele>
        <time>2022-04-07T09:56:45+02:00</time>
      </trkpt>
      <trkpt lat="45.31842" lon="4.73477">
        <ele>425</ele>
        <time>2022-04-07T09:56:57+02:00</time>
      </trkpt>
      <trkpt lat="45.31831" lon="4.73489">
        <ele>425</ele>
        <time>2022-04-07T09:57:09+02:00</time>
      </trkpt>
      <trkpt lat="45.31818" lon="4.73501">
        <ele>423</ele>
        <time>2022-04-07T09:57:21+02:00</time>
      </trkpt>
      <trkpt lat="45.31806" lon="4.7351">
        <ele>422</ele>
        <time>2022-04-07T09:57:33+02:00</time>
      </trkpt>
      <trkpt lat="45.31793" lon="4.73517">
        <ele>424</ele>
        <time>2022-04-07T09:57:45+02:00</time>
      </trkpt>
      <trkpt lat="45.31779" lon="4.73522">
        <ele>423</ele>
        <time>2022-04-07T09:57:57+02:00</time>
      </trkpt>
      <trkpt lat="45.31765" lon="4.73529">
        <ele>422</ele>
        <time>2022-04-07T09:58:09+02:00</time>
      </trkpt>
      <trkpt lat="45.31752" lon="4.73536">
        <ele>418</ele>
        <time>2022-04-07T09:58:21+02:00</time>
      </trkpt>
      <trkpt lat="45.31749" lon="4.73555">
        <ele>420</ele>
        <time>2022-04-07T09:58:35+02:00</time>
      </trkpt>
      <trkpt lat="45.31754" lon="4.73574">
        <ele>419</ele>
        <time>2022-04-07T09:58:47+02:00</time>
      </trkpt>
      <trkpt lat="45.31759" lon="4.73593">
        <ele>417</ele>
        <time>2022-04-07T09:58:58+02:00</time>
      </trkpt>
      <trkpt lat="45.31763" lon="4.73612">
        <ele>416</ele>
        <time>2022-04-07T09:59:09+02:00</time>
      </trkpt>
      <trkpt lat="45.31769" lon="4.73631">
        <ele>419</ele>
        <time>2022-04-07T09:59:21+02:00</time>
      </trkpt>
      <trkpt lat="45.31773" lon="4.7365">
        <ele>419</ele>
        <time>2022-04-07T09:59:32+02:00</time>
      </trkpt>
      <trkpt lat="45.31777" lon="4.73669">
        <ele>421</ele>
        <time>2022-04-07T09:59:44+02:00</time>
      </trkpt>
      <trkpt lat="45.31781" lon="4.73688">
        <ele>421</ele>
        <time>2022-04-07T09:59:56+02:00</time>
      </trkpt>
      <trkpt lat="45.31788" lon="4.73706">
        <ele>421</ele>
        <time>2022-04-07T10:00:08+02:00</time>
      </trkpt>
      <trkpt lat="45.31794" lon="4.73724">
        <ele>421</ele>
        <time>2022-04-07T10:00:20+02:00</time>
      </trkpt>
      <trkpt lat="45.31802" lon="4.7374">
        <ele>421</ele>
        <time>2022-04-07T10:00:32+02:00</time>
      </trkpt>
      <trkpt lat="45.31808" lon="4.73758">
        <ele>420</ele>
        <time>2022-04-07T10:00:43+02:00</time>
      </trkpt>
      <trkpt lat="45.31821" lon="4.73792">
        <ele>423</ele>
        <time>2022-04-07T10:01:06+02:00</time>
      </trkpt>
      <trkpt lat="45.31829" lon="4.73808">
        <ele>423</ele>
        <time>2022-04-07T10:01:18+02:00</time>
      </trkpt>
      <trkpt lat="45.31835" lon="4.73825">
        <ele>422</ele>
        <time>2022-04-07T10:01:30+02:00</time>
      </trkpt>
      <trkpt lat="45.31842" lon="4.73843">
        <ele>417</ele>
        <time>2022-04-07T10:01:42+02:00</time>
      </trkpt>
      <trkpt lat="45.31851" lon="4.73857">
        <ele>416</ele>
        <time>2022-04-07T10:01:54+02:00</time>
      </trkpt>
      <trkpt lat="45.31861" lon="4.73871">
        <ele>417</ele>
        <time>2022-04-07T10:02:06+02:00</time>
      </trkpt>
      <trkpt lat="45.31873" lon="4.73881">
        <ele>415</ele>
        <time>2022-04-07T10:02:18+02:00</time>
      </trkpt>
      <trkpt lat="45.31884" lon="4.73893">
        <ele>413</ele>
        <time>2022-04-07T10:02:30+02:00</time>
      </trkpt>
      <trkpt lat="45.31896" lon="4.73903">
        <ele>414</ele>
        <time>2022-04-07T10:02:42+02:00</time>
      </trkpt>
      <trkpt lat="45.31907" lon="4.73916">
        <ele>415</ele>
        <time>2022-04-07T10:02:55+02:00</time>
      </trkpt>
      <trkpt lat="45.31911" lon="4.73935">
        <ele>411</ele>
        <time>2022-04-07T10:03:08+02:00</time>
      </trkpt>
      <trkpt lat="45.31909" lon="4.73955">
        <ele>411</ele>
        <time>2022-04-07T10:03:26+02:00</time>
      </trkpt>
      <trkpt lat="45.31919" lon="4.7397">
        <ele>404</ele>
        <time>2022-04-07T10:03:45+02:00</time>
      </trkpt>
      <trkpt lat="45.31921" lon="4.73992">
        <ele>405</ele>
        <time>2022-04-07T10:03:54+02:00</time>
      </trkpt>
      <trkpt lat="45.31913" lon="4.74009">
        <ele>407</ele>
        <time>2022-04-07T10:04:04+02:00</time>
      </trkpt>
      <trkpt lat="45.31897" lon="4.74018">
        <ele>408</ele>
        <time>2022-04-07T10:04:21+02:00</time>
      </trkpt>
      <trkpt lat="45.31884" lon="4.7402">
        <ele>407</ele>
        <time>2022-04-07T10:04:29+02:00</time>
      </trkpt>
      <trkpt lat="45.3187" lon="4.74025">
        <ele>405</ele>
        <time>2022-04-07T10:04:39+02:00</time>
      </trkpt>
      <trkpt lat="45.31855" lon="4.74027">
        <ele>404</ele>
        <time>2022-04-07T10:04:52+02:00</time>
      </trkpt>
      <trkpt lat="45.31842" lon="4.74031">
        <ele>405</ele>
        <time>2022-04-07T10:05:05+02:00</time>
      </trkpt>
      <trkpt lat="45.31827" lon="4.74031">
        <ele>405</ele>
        <time>2022-04-07T10:05:18+02:00</time>
      </trkpt>
      <trkpt lat="45.31814" lon="4.7403">
        <ele>404</ele>
        <time>2022-04-07T10:05:30+02:00</time>
      </trkpt>
      <trkpt lat="45.31801" lon="4.74036">
        <ele>406</ele>
        <time>2022-04-07T10:05:58+02:00</time>
      </trkpt>
      <trkpt lat="45.31788" lon="4.74044">
        <ele>404</ele>
        <time>2022-04-07T10:06:11+02:00</time>
      </trkpt>
      <trkpt lat="45.31778" lon="4.74058">
        <ele>402</ele>
        <time>2022-04-07T10:06:24+02:00</time>
      </trkpt>
      <trkpt lat="45.31767" lon="4.74072">
        <ele>401</ele>
        <time>2022-04-07T10:06:36+02:00</time>
      </trkpt>
      <trkpt lat="45.31756" lon="4.74084">
        <ele>394</ele>
        <time>2022-04-07T10:06:48+02:00</time>
      </trkpt>
      <trkpt lat="45.31744" lon="4.74096">
        <ele>398</ele>
        <time>2022-04-07T10:07:00+02:00</time>
      </trkpt>
      <trkpt lat="45.31734" lon="4.7411">
        <ele>397</ele>
        <time>2022-04-07T10:07:12+02:00</time>
      </trkpt>
      <trkpt lat="45.31722" lon="4.74122">
        <ele>396</ele>
        <time>2022-04-07T10:07:23+02:00</time>
      </trkpt>
      <trkpt lat="45.31712" lon="4.74136">
        <ele>398</ele>
        <time>2022-04-07T10:07:34+02:00</time>
      </trkpt>
      <trkpt lat="45.317" lon="4.74146">
        <ele>398</ele>
        <time>2022-04-07T10:07:45+02:00</time>
      </trkpt>
      <trkpt lat="45.3169" lon="4.74158">
        <ele>397</ele>
        <time>2022-04-07T10:07:56+02:00</time>
      </trkpt>
      <trkpt lat="45.31677" lon="4.74168">
        <ele>397</ele>
        <time>2022-04-07T10:08:07+02:00</time>
      </trkpt>
      <trkpt lat="45.31666" lon="4.7418">
        <ele>395</ele>
        <time>2022-04-07T10:08:18+02:00</time>
      </trkpt>
      <trkpt lat="45.31653" lon="4.74191">
        <ele>395</ele>
        <time>2022-04-07T10:08:29+02:00</time>
      </trkpt>
      <trkpt lat="45.31641" lon="4.742">
        <ele>396</ele>
        <time>2022-04-07T10:08:40+02:00</time>
      </trkpt>
      <trkpt lat="45.3163" lon="4.74213">
        <ele>400</ele>
        <time>2022-04-07T10:08:51+02:00</time>
      </trkpt>
      <trkpt lat="45.31618" lon="4.74222">
        <ele>401</ele>
        <time>2022-04-07T10:09:01+02:00</time>
      </trkpt>
      <trkpt lat="45.31605" lon="4.74231">
        <ele>402</ele>
        <time>2022-04-07T10:09:11+02:00</time>
      </trkpt>
      <trkpt lat="45.31594" lon="4.74244">
        <ele>403</ele>
        <time>2022-04-07T10:09:23+02:00</time>
      </trkpt>
      <trkpt lat="45.31585" lon="4.74258">
        <ele>406</ele>
        <time>2022-04-07T10:09:35+02:00</time>
      </trkpt>
      <trkpt lat="45.31576" lon="4.74274">
        <ele>406</ele>
        <time>2022-04-07T10:09:47+02:00</time>
      </trkpt>
      <trkpt lat="45.31555" lon="4.743">
        <ele>407</ele>
        <time>2022-04-07T10:10:11+02:00</time>
      </trkpt>
      <trkpt lat="45.31544" lon="4.74311">
        <ele>409</ele>
        <time>2022-04-07T10:10:23+02:00</time>
      </trkpt>
      <trkpt lat="45.31534" lon="4.74324">
        <ele>408</ele>
        <time>2022-04-07T10:10:35+02:00</time>
      </trkpt>
      <trkpt lat="45.31525" lon="4.7434">
        <ele>408</ele>
        <time>2022-04-07T10:10:47+02:00</time>
      </trkpt>
      <trkpt lat="45.31513" lon="4.74352">
        <ele>408</ele>
        <time>2022-04-07T10:11:00+02:00</time>
      </trkpt>
      <trkpt lat="45.31504" lon="4.74366">
        <ele>408</ele>
        <time>2022-04-07T10:11:12+02:00</time>
      </trkpt>
      <trkpt lat="45.31494" lon="4.74382">
        <ele>404</ele>
        <time>2022-04-07T10:11:25+02:00</time>
      </trkpt>
      <trkpt lat="45.31483" lon="4.74392">
        <ele>404</ele>
        <time>2022-04-07T10:11:38+02:00</time>
      </trkpt>
      <trkpt lat="45.31474" lon="4.74407">
        <ele>407</ele>
        <time>2022-04-07T10:11:50+02:00</time>
      </trkpt>
      <trkpt lat="45.31468" lon="4.74426">
        <ele>408</ele>
        <time>2022-04-07T10:12:02+02:00</time>
      </trkpt>
      <trkpt lat="45.31462" lon="4.74447">
        <ele>407</ele>
        <time>2022-04-07T10:12:20+02:00</time>
      </trkpt>
      <trkpt lat="45.3146" lon="4.74469">
        <ele>408</ele>
        <time>2022-04-07T10:12:29+02:00</time>
      </trkpt>
      <trkpt lat="45.31451" lon="4.74488">
        <ele>406</ele>
        <time>2022-04-07T10:12:47+02:00</time>
      </trkpt>
      <trkpt lat="45.31441" lon="4.74507">
        <ele>406</ele>
        <time>2022-04-07T10:12:57+02:00</time>
      </trkpt>
      <trkpt lat="45.3143" lon="4.74521">
        <ele>407</ele>
        <time>2022-04-07T10:13:08+02:00</time>
      </trkpt>
      <trkpt lat="45.31419" lon="4.74534">
        <ele>403</ele>
        <time>2022-04-07T10:13:21+02:00</time>
      </trkpt>
      <trkpt lat="45.31411" lon="4.7455">
        <ele>401</ele>
        <time>2022-04-07T10:13:33+02:00</time>
      </trkpt>
      <trkpt lat="45.31397" lon="4.74555">
        <ele>394</ele>
        <time>2022-04-07T10:13:46+02:00</time>
      </trkpt>
      <trkpt lat="45.31383" lon="4.74555">
        <ele>395</ele>
        <time>2022-04-07T10:13:58+02:00</time>
      </trkpt>
      <trkpt lat="45.31368" lon="4.74554">
        <ele>394</ele>
        <time>2022-04-07T10:14:10+02:00</time>
      </trkpt>
      <trkpt lat="45.31354" lon="4.74549">
        <ele>393</ele>
        <time>2022-04-07T10:14:22+02:00</time>
      </trkpt>
      <trkpt lat="45.31342" lon="4.7454">
        <ele>389</ele>
        <time>2022-04-07T10:14:36+02:00</time>
      </trkpt>
      <trkpt lat="45.31332" lon="4.74527">
        <ele>391</ele>
        <time>2022-04-07T10:14:49+02:00</time>
      </trkpt>
      <trkpt lat="45.31321" lon="4.74514">
        <ele>388</ele>
        <time>2022-04-07T10:15:01+02:00</time>
      </trkpt>
      <trkpt lat="45.31312" lon="4.74499">
        <ele>386</ele>
        <time>2022-04-07T10:15:13+02:00</time>
      </trkpt>
      <trkpt lat="45.31303" lon="4.74484">
        <ele>384</ele>
        <time>2022-04-07T10:15:25+02:00</time>
      </trkpt>
      <trkpt lat="45.31294" lon="4.74468">
        <ele>382</ele>
        <time>2022-04-07T10:15:37+02:00</time>
      </trkpt>
      <trkpt lat="45.31287" lon="4.7445">
        <ele>381</ele>
        <time>2022-04-07T10:15:47+02:00</time>
      </trkpt>
      <trkpt lat="45.31274" lon="4.74445">
        <ele>378</ele>
        <time>2022-04-07T10:16:08+02:00</time>
      </trkpt>
      <trkpt lat="45.31258" lon="4.74445">
        <ele>379</ele>
        <time>2022-04-07T10:16:17+02:00</time>
      </trkpt>
      <trkpt lat="45.31245" lon="4.74436">
        <ele>377</ele>
        <time>2022-04-07T10:16:27+02:00</time>
      </trkpt>
      <trkpt lat="45.31232" lon="4.74427">
        <ele>375</ele>
        <time>2022-04-07T10:16:36+02:00</time>
      </trkpt>
      <trkpt lat="45.31219" lon="4.74424">
        <ele>374</ele>
        <time>2022-04-07T10:16:53+02:00</time>
      </trkpt>
      <trkpt lat="45.31206" lon="4.74429">
        <ele>372</ele>
        <time>2022-04-07T10:17:07+02:00</time>
      </trkpt>
      <trkpt lat="45.31192" lon="4.74437">
        <ele>376</ele>
        <time>2022-04-07T10:17:20+02:00</time>
      </trkpt>
      <trkpt lat="45.31179" lon="4.74446">
        <ele>378</ele>
        <time>2022-04-07T10:17:34+02:00</time>
      </trkpt>
      <trkpt lat="45.31167" lon="4.74456">
        <ele>380</ele>
        <time>2022-04-07T10:17:45+02:00</time>
      </trkpt>
      <trkpt lat="45.31157" lon="4.74469">
        <ele>379</ele>
        <time>2022-04-07T10:18:05+02:00</time>
      </trkpt>
      <trkpt lat="45.31146" lon="4.74481">
        <ele>383</ele>
        <time>2022-04-07T10:18:12+02:00</time>
      </trkpt>
      <trkpt lat="45.31136" lon="4.74495">
        <ele>382</ele>
        <time>2022-04-07T10:18:22+02:00</time>
      </trkpt>
      <trkpt lat="45.31125" lon="4.74508">
        <ele>382</ele>
        <time>2022-04-07T10:18:34+02:00</time>
      </trkpt>
      <trkpt lat="45.31114" lon="4.74521">
        <ele>384</ele>
        <time>2022-04-07T10:18:47+02:00</time>
      </trkpt>
      <trkpt lat="45.31102" lon="4.74531">
        <ele>382</ele>
        <time>2022-04-07T10:19:00+02:00</time>
      </trkpt>
      <trkpt lat="45.31092" lon="4.74547">
        <ele>381</ele>
        <time>2022-04-07T10:19:12+02:00</time>
      </trkpt>
      <trkpt lat="45.31086" lon="4.74565">
        <ele>384</ele>
        <time>2022-04-07T10:19:24+02:00</time>
      </trkpt>
      <trkpt lat="45.31085" lon="4.74584">
        <ele>382</ele>
        <time>2022-04-07T10:19:35+02:00</time>
      </trkpt>
      <trkpt lat="45.31084" lon="4.74605">
        <ele>382</ele>
        <time>2022-04-07T10:19:47+02:00</time>
      </trkpt>
      <trkpt lat="45.31089" lon="4.74624">
        <ele>384</ele>
        <time>2022-04-07T10:19:59+02:00</time>
      </trkpt>
      <trkpt lat="45.31091" lon="4.74644">
        <ele>387</ele>
        <time>2022-04-07T10:20:11+02:00</time>
      </trkpt>
      <trkpt lat="45.31101" lon="4.74682">
        <ele>386</ele>
        <time>2022-04-07T10:20:35+02:00</time>
      </trkpt>
      <trkpt lat="45.31106" lon="4.747">
        <ele>386</ele>
        <time>2022-04-07T10:20:47+02:00</time>
      </trkpt>
      <trkpt lat="45.31112" lon="4.74718">
        <ele>384</ele>
        <time>2022-04-07T10:20:59+02:00</time>
      </trkpt>
      <trkpt lat="45.31118" lon="4.74736">
        <ele>382</ele>
        <time>2022-04-07T10:21:12+02:00</time>
      </trkpt>
      <trkpt lat="45.31127" lon="4.74751">
        <ele>383</ele>
        <time>2022-04-07T10:21:27+02:00</time>
      </trkpt>
      <trkpt lat="45.3113" lon="4.7477">
        <ele>383</ele>
        <time>2022-04-07T10:21:39+02:00</time>
      </trkpt>
      <trkpt lat="45.31134" lon="4.74788">
        <ele>381</ele>
        <time>2022-04-07T10:21:51+02:00</time>
      </trkpt>
      <trkpt lat="45.31132" lon="4.74808">
        <ele>380</ele>
        <time>2022-04-07T10:22:03+02:00</time>
      </trkpt>
      <trkpt lat="45.31127" lon="4.74827">
        <ele>379</ele>
        <time>2022-04-07T10:22:16+02:00</time>
      </trkpt>
      <trkpt lat="45.31123" lon="4.74846">
        <ele>377</ele>
        <time>2022-04-07T10:22:28+02:00</time>
      </trkpt>
      <trkpt lat="45.3112" lon="4.74866">
        <ele>375</ele>
        <time>2022-04-07T10:22:40+02:00</time>
      </trkpt>
      <trkpt lat="45.31118" lon="4.74885">
        <ele>375</ele>
        <time>2022-04-07T10:22:51+02:00</time>
      </trkpt>
      <trkpt lat="45.31117" lon="4.74904">
        <ele>377</ele>
        <time>2022-04-07T10:23:02+02:00</time>
      </trkpt>
      <trkpt lat="45.31115" lon="4.74923">
        <ele>375</ele>
        <time>2022-04-07T10:23:13+02:00</time>
      </trkpt>
      <trkpt lat="45.31113" lon="4.74943">
        <ele>374</ele>
        <time>2022-04-07T10:23:25+02:00</time>
      </trkpt>
      <trkpt lat="45.31111" lon="4.74963">
        <ele>377</ele>
        <time>2022-04-07T10:23:37+02:00</time>
      </trkpt>
      <trkpt lat="45.31108" lon="4.74982">
        <ele>379</ele>
        <time>2022-04-07T10:23:48+02:00</time>
      </trkpt>
      <trkpt lat="45.31106" lon="4.75003">
        <ele>382</ele>
        <time>2022-04-07T10:24:00+02:00</time>
      </trkpt>
      <trkpt lat="45.31103" lon="4.75023">
        <ele>384</ele>
        <time>2022-04-07T10:24:11+02:00</time>
      </trkpt>
      <trkpt lat="45.31092" lon="4.75035">
        <ele>383</ele>
        <time>2022-04-07T10:24:27+02:00</time>
      </trkpt>
      <trkpt lat="45.31101" lon="4.75049">
        <ele>381</ele>
        <time>2022-04-07T10:25:22+02:00</time>
      </trkpt>
      <trkpt lat="45.31102" lon="4.75069">
        <ele>382</ele>
        <time>2022-04-07T10:25:33+02:00</time>
      </trkpt>
      <trkpt lat="45.31105" lon="4.75088">
        <ele>384</ele>
        <time>2022-04-07T10:25:45+02:00</time>
      </trkpt>
      <trkpt lat="45.3111" lon="4.75106">
        <ele>382</ele>
        <time>2022-04-07T10:25:57+02:00</time>
      </trkpt>
      <trkpt lat="45.31117" lon="4.75124">
        <ele>379</ele>
        <time>2022-04-07T10:26:09+02:00</time>
      </trkpt>
      <trkpt lat="45.31128" lon="4.7516">
        <ele>378</ele>
        <time>2022-04-07T10:26:33+02:00</time>
      </trkpt>
      <trkpt lat="45.31135" lon="4.75178">
        <ele>377</ele>
        <time>2022-04-07T10:26:45+02:00</time>
      </trkpt>
      <trkpt lat="45.31143" lon="4.75194">
        <ele>375</ele>
        <time>2022-04-07T10:26:57+02:00</time>
      </trkpt>
      <trkpt lat="45.31151" lon="4.7521">
        <ele>374</ele>
        <time>2022-04-07T10:27:09+02:00</time>
      </trkpt>
      <trkpt lat="45.31157" lon="4.75229">
        <ele>375</ele>
        <time>2022-04-07T10:27:21+02:00</time>
      </trkpt>
      <trkpt lat="45.31165" lon="4.75246">
        <ele>375</ele>
        <time>2022-04-07T10:27:33+02:00</time>
      </trkpt>
      <trkpt lat="45.31172" lon="4.75263">
        <ele>374</ele>
        <time>2022-04-07T10:27:45+02:00</time>
      </trkpt>
      <trkpt lat="45.31179" lon="4.75281">
        <ele>374</ele>
        <time>2022-04-07T10:27:57+02:00</time>
      </trkpt>
      <trkpt lat="45.31187" lon="4.75298">
        <ele>375</ele>
        <time>2022-04-07T10:28:09+02:00</time>
      </trkpt>
      <trkpt lat="45.3119" lon="4.75317">
        <ele>376</ele>
        <time>2022-04-07T10:28:21+02:00</time>
      </trkpt>
      <trkpt lat="45.31193" lon="4.75337">
        <ele>378</ele>
        <time>2022-04-07T10:28:33+02:00</time>
      </trkpt>
      <trkpt lat="45.31199" lon="4.75356">
        <ele>376</ele>
        <time>2022-04-07T10:28:45+02:00</time>
      </trkpt>
      <trkpt lat="45.31203" lon="4.75375">
        <ele>374</ele>
        <time>2022-04-07T10:28:57+02:00</time>
      </trkpt>
      <trkpt lat="45.31209" lon="4.75394">
        <ele>374</ele>
        <time>2022-04-07T10:29:09+02:00</time>
      </trkpt>
      <trkpt lat="45.31214" lon="4.75413">
        <ele>377</ele>
        <time>2022-04-07T10:29:22+02:00</time>
      </trkpt>
      <trkpt lat="45.31219" lon="4.75431">
        <ele>376</ele>
        <time>2022-04-07T10:29:35+02:00</time>
      </trkpt>
      <trkpt lat="45.31224" lon="4.7545">
        <ele>373</ele>
        <time>2022-04-07T10:29:49+02:00</time>
      </trkpt>
      <trkpt lat="45.3123" lon="4.75468">
        <ele>373</ele>
        <time>2022-04-07T10:30:02+02:00</time>
      </trkpt>
      <trkpt lat="45.31236" lon="4.75485">
        <ele>373</ele>
        <time>2022-04-07T10:30:15+02:00</time>
      </trkpt>
      <trkpt lat="45.31244" lon="4.75502">
        <ele>368</ele>
        <time>2022-04-07T10:30:29+02:00</time>
      </trkpt>
      <trkpt lat="45.31249" lon="4.7552">
        <ele>367</ele>
        <time>2022-04-07T10:30:42+02:00</time>
      </trkpt>
      <trkpt lat="45.31254" lon="4.75539">
        <ele>367</ele>
        <time>2022-04-07T10:30:55+02:00</time>
      </trkpt>
      <trkpt lat="45.31257" lon="4.75558">
        <ele>368</ele>
        <time>2022-04-07T10:31:08+02:00</time>
      </trkpt>
      <trkpt lat="45.31267" lon="4.75594">
        <ele>364</ele>
        <time>2022-04-07T10:31:34+02:00</time>
      </trkpt>
      <trkpt lat="45.31271" lon="4.75614">
        <ele>362</ele>
        <time>2022-04-07T10:31:48+02:00</time>
      </trkpt>
      <trkpt lat="45.31274" lon="4.75632">
        <ele>360</ele>
        <time>2022-04-07T10:32:01+02:00</time>
      </trkpt>
      <trkpt lat="45.31278" lon="4.75652">
        <ele>357</ele>
        <time>2022-04-07T10:32:15+02:00</time>
      </trkpt>
      <trkpt lat="45.31283" lon="4.7567">
        <ele>354</ele>
        <time>2022-04-07T10:32:28+02:00</time>
      </trkpt>
      <trkpt lat="45.3129" lon="4.75687">
        <ele>355</ele>
        <time>2022-04-07T10:32:40+02:00</time>
      </trkpt>
      <trkpt lat="45.31298" lon="4.75703">
        <ele>351</ele>
        <time>2022-04-07T10:32:52+02:00</time>
      </trkpt>
      <trkpt lat="45.31304" lon="4.75721">
        <ele>352</ele>
        <time>2022-04-07T10:33:05+02:00</time>
      </trkpt>
      <trkpt lat="45.31308" lon="4.7574">
        <ele>350</ele>
        <time>2022-04-07T10:33:17+02:00</time>
      </trkpt>
      <trkpt lat="45.31311" lon="4.7576">
        <ele>348</ele>
        <time>2022-04-07T10:33:30+02:00</time>
      </trkpt>
      <trkpt lat="45.31313" lon="4.7578">
        <ele>346</ele>
        <time>2022-04-07T10:33:42+02:00</time>
      </trkpt>
      <trkpt lat="45.31314" lon="4.758">
        <ele>347</ele>
        <time>2022-04-07T10:33:55+02:00</time>
      </trkpt>
      <trkpt lat="45.31316" lon="4.7578">
        <ele>346</ele>
        <time>2022-04-07T10:34:18+02:00</time>
      </trkpt>
      <trkpt lat="45.31318" lon="4.7576">
        <ele>350</ele>
        <time>2022-04-07T10:34:30+02:00</time>
      </trkpt>
      <trkpt lat="45.31319" lon="4.75741">
        <ele>351</ele>
        <time>2022-04-07T10:34:49+02:00</time>
      </trkpt>
      <trkpt lat="45.31313" lon="4.75722">
        <ele>350</ele>
        <time>2022-04-07T10:35:00+02:00</time>
      </trkpt>
      <trkpt lat="45.31305" lon="4.75706">
        <ele>348</ele>
        <time>2022-04-07T10:35:10+02:00</time>
      </trkpt>
      <trkpt lat="45.31316" lon="4.75696">
        <ele>344</ele>
        <time>2022-04-07T10:35:32+02:00</time>
      </trkpt>
      <trkpt lat="45.31302" lon="4.75692">
        <ele>349</ele>
        <time>2022-04-07T10:35:54+02:00</time>
      </trkpt>
      <trkpt lat="45.31307" lon="4.75673">
        <ele>344</ele>
        <time>2022-04-07T10:36:17+02:00</time>
      </trkpt>
      <trkpt lat="45.31321" lon="4.75674">
        <ele>342</ele>
        <time>2022-04-07T10:36:32+02:00</time>
      </trkpt>
      <trkpt lat="45.31335" lon="4.75674">
        <ele>342</ele>
        <time>2022-04-07T10:36:49+02:00</time>
      </trkpt>
      <trkpt lat="45.31349" lon="4.75676">
        <ele>340</ele>
        <time>2022-04-07T10:37:04+02:00</time>
      </trkpt>
      <trkpt lat="45.3136" lon="4.75664">
        <ele>339</ele>
        <time>2022-04-07T10:37:26+02:00</time>
      </trkpt>
      <trkpt lat="45.31367" lon="4.75647">
        <ele>338</ele>
        <time>2022-04-07T10:37:39+02:00</time>
      </trkpt>
      <trkpt lat="45.31374" lon="4.75629">
        <ele>339</ele>
        <time>2022-04-07T10:37:55+02:00</time>
      </trkpt>
      <trkpt lat="45.31362" lon="4.7562">
        <ele>340</ele>
        <time>2022-04-07T10:38:10+02:00</time>
      </trkpt>
      <trkpt lat="45.31376" lon="4.7562">
        <ele>344</ele>
        <time>2022-04-07T10:38:48+02:00</time>
      </trkpt>
      <trkpt lat="45.31389" lon="4.75629">
        <ele>341</ele>
        <time>2022-04-07T10:39:02+02:00</time>
      </trkpt>
      <trkpt lat="45.31402" lon="4.75636">
        <ele>343</ele>
        <time>2022-04-07T10:39:15+02:00</time>
      </trkpt>
      <trkpt lat="45.31416" lon="4.75642">
        <ele>341</ele>
        <time>2022-04-07T10:39:28+02:00</time>
      </trkpt>
      <trkpt lat="45.3143" lon="4.75649">
        <ele>340</ele>
        <time>2022-04-07T10:39:41+02:00</time>
      </trkpt>
      <trkpt lat="45.31443" lon="4.75655">
        <ele>339</ele>
        <time>2022-04-07T10:39:53+02:00</time>
      </trkpt>
      <trkpt lat="45.31456" lon="4.75662">
        <ele>339</ele>
        <time>2022-04-07T10:40:05+02:00</time>
      </trkpt>
      <trkpt lat="45.31468" lon="4.7567">
        <ele>335</ele>
        <time>2022-04-07T10:40:19+02:00</time>
      </trkpt>
      <trkpt lat="45.31483" lon="4.75673">
        <ele>336</ele>
        <time>2022-04-07T10:40:35+02:00</time>
      </trkpt>
      <trkpt lat="45.31495" lon="4.75664">
        <ele>335</ele>
        <time>2022-04-07T10:40:49+02:00</time>
      </trkpt>
      <trkpt lat="45.31482" lon="4.7567">
        <ele>334</ele>
        <time>2022-04-07T10:41:07+02:00</time>
      </trkpt>
      <trkpt lat="45.31468" lon="4.75669">
        <ele>336</ele>
        <time>2022-04-07T10:41:20+02:00</time>
      </trkpt>
      <trkpt lat="45.31455" lon="4.75662">
        <ele>339</ele>
        <time>2022-04-07T10:41:33+02:00</time>
      </trkpt>
      <trkpt lat="45.31442" lon="4.75655">
        <ele>341</ele>
        <time>2022-04-07T10:41:47+02:00</time>
      </trkpt>
      <trkpt lat="45.31429" lon="4.75648">
        <ele>342</ele>
        <time>2022-04-07T10:42:00+02:00</time>
      </trkpt>
      <trkpt lat="45.31415" lon="4.75642">
        <ele>344</ele>
        <time>2022-04-07T10:42:13+02:00</time>
      </trkpt>
      <trkpt lat="45.31401" lon="4.75637">
        <ele>348</ele>
        <time>2022-04-07T10:42:26+02:00</time>
      </trkpt>
      <trkpt lat="45.31387" lon="4.75632">
        <ele>351</ele>
        <time>2022-04-07T10:42:38+02:00</time>
      </trkpt>
      <trkpt lat="45.31377" lon="4.7562">
        <ele>349</ele>
        <time>2022-04-07T10:42:47+02:00</time>
      </trkpt>
      <trkpt lat="45.31362" lon="4.7562">
        <ele>351</ele>
        <time>2022-04-07T10:42:59+02:00</time>
      </trkpt>
      <trkpt lat="45.31349" lon="4.75614">
        <ele>349</ele>
        <time>2022-04-07T10:43:10+02:00</time>
      </trkpt>
      <trkpt lat="45.31335" lon="4.75618">
        <ele>347</ele>
        <time>2022-04-07T10:43:31+02:00</time>
      </trkpt>
      <trkpt lat="45.31325" lon="4.75631">
        <ele>346</ele>
        <time>2022-04-07T10:43:41+02:00</time>
      </trkpt>
      <trkpt lat="45.31316" lon="4.75646">
        <ele>350</ele>
        <time>2022-04-07T10:43:52+02:00</time>
      </trkpt>
      <trkpt lat="45.31309" lon="4.75663">
        <ele>352</ele>
        <time>2022-04-07T10:44:04+02:00</time>
      </trkpt>
      <trkpt lat="45.31299" lon="4.75675">
        <ele>348</ele>
        <time>2022-04-07T10:44:19+02:00</time>
      </trkpt>
      <trkpt lat="45.31306" lon="4.75691">
        <ele>345</ele>
        <time>2022-04-07T10:44:54+02:00</time>
      </trkpt>
      <trkpt lat="45.3132" lon="4.75695">
        <ele>344</ele>
        <time>2022-04-07T10:45:09+02:00</time>
      </trkpt>
      <trkpt lat="45.31334" lon="4.75699">
        <ele>343</ele>
        <time>2022-04-07T10:45:24+02:00</time>
      </trkpt>
      <trkpt lat="45.31348" lon="4.75701">
        <ele>340</ele>
        <time>2022-04-07T10:45:38+02:00</time>
      </trkpt>
      <trkpt lat="45.31362" lon="4.75704">
        <ele>337</ele>
        <time>2022-04-07T10:45:52+02:00</time>
      </trkpt>
      <trkpt lat="45.31374" lon="4.75713">
        <ele>334</ele>
        <time>2022-04-07T10:46:26+02:00</time>
      </trkpt>
      <trkpt lat="45.31363" lon="4.75702">
        <ele>338</ele>
        <time>2022-04-07T10:47:04+02:00</time>
      </trkpt>
      <trkpt lat="45.31349" lon="4.75696">
        <ele>340</ele>
        <time>2022-04-07T10:47:19+02:00</time>
      </trkpt>
      <trkpt lat="45.31337" lon="4.75688">
        <ele>340</ele>
        <time>2022-04-07T10:47:35+02:00</time>
      </trkpt>
      <trkpt lat="45.31323" lon="4.7569">
        <ele>342</ele>
        <time>2022-04-07T10:47:51+02:00</time>
      </trkpt>
      <trkpt lat="45.3131" lon="4.75689">
        <ele>342</ele>
        <time>2022-04-07T10:48:09+02:00</time>
      </trkpt>
      <trkpt lat="45.31298" lon="4.75678">
        <ele>345</ele>
        <time>2022-04-07T10:48:29+02:00</time>
      </trkpt>
      <trkpt lat="45.31312" lon="4.75673">
        <ele>344</ele>
        <time>2022-04-07T10:49:01+02:00</time>
      </trkpt>
      <trkpt lat="45.31326" lon="4.75674">
        <ele>341</ele>
        <time>2022-04-07T10:49:20+02:00</time>
      </trkpt>
      <trkpt lat="45.3134" lon="4.75673">
        <ele>338</ele>
        <time>2022-04-07T10:49:36+02:00</time>
      </trkpt>
      <trkpt lat="45.31353" lon="4.75677">
        <ele>339</ele>
        <time>2022-04-07T10:49:54+02:00</time>
      </trkpt>
      <trkpt lat="45.31366" lon="4.75683">
        <ele>339</ele>
        <time>2022-04-07T10:50:12+02:00</time>
      </trkpt>
      <trkpt lat="45.3138" lon="4.75684">
        <ele>334</ele>
        <time>2022-04-07T10:50:26+02:00</time>
      </trkpt>
      <trkpt lat="45.3139" lon="4.75698">
        <ele>328</ele>
        <time>2022-04-07T10:51:09+02:00</time>
      </trkpt>
      <trkpt lat="45.31404" lon="4.75704">
        <ele>322</ele>
        <time>2022-04-07T10:51:19+02:00</time>
      </trkpt>
      <trkpt lat="45.31413" lon="4.7572">
        <ele>324</ele>
        <time>2022-04-07T10:51:30+02:00</time>
      </trkpt>
      <trkpt lat="45.31425" lon="4.75732">
        <ele>323</ele>
        <time>2022-04-07T10:52:02+02:00</time>
      </trkpt>
      <trkpt lat="45.31436" lon="4.75744">
        <ele>324</ele>
        <time>2022-04-07T10:52:11+02:00</time>
      </trkpt>
      <trkpt lat="45.31448" lon="4.75754">
        <ele>320</ele>
        <time>2022-04-07T10:52:25+02:00</time>
      </trkpt>
      <trkpt lat="45.31458" lon="4.75768">
        <ele>316</ele>
        <time>2022-04-07T10:53:00+02:00</time>
      </trkpt>
      <trkpt lat="45.31471" lon="4.75775">
        <ele>318</ele>
        <time>2022-04-07T10:53:08+02:00</time>
      </trkpt>
      <trkpt lat="45.31485" lon="4.75779">
        <ele>319</ele>
        <time>2022-04-07T10:53:19+02:00</time>
      </trkpt>
      <trkpt lat="45.31499" lon="4.75778">
        <ele>311</ele>
        <time>2022-04-07T10:53:35+02:00</time>
      </trkpt>
      <trkpt lat="45.31513" lon="4.75779">
        <ele>308</ele>
        <time>2022-04-07T10:53:54+02:00</time>
      </trkpt>
      <trkpt lat="45.31527" lon="4.75774">
        <ele>304</ele>
        <time>2022-04-07T10:54:10+02:00</time>
      </trkpt>
      <trkpt lat="45.3154" lon="4.75769">
        <ele>304</ele>
        <time>2022-04-07T10:54:27+02:00</time>
      </trkpt>
      <trkpt lat="45.31554" lon="4.75762">
        <ele>303</ele>
        <time>2022-04-07T10:54:44+02:00</time>
      </trkpt>
      <trkpt lat="45.31566" lon="4.75754">
        <ele>299</ele>
        <time>2022-04-07T10:54:56+02:00</time>
      </trkpt>
      <trkpt lat="45.31571" lon="4.75735">
        <ele>298</ele>
        <time>2022-04-07T10:55:10+02:00</time>
      </trkpt>
      <trkpt lat="45.31586" lon="4.75734">
        <ele>297</ele>
        <time>2022-04-07T10:55:40+02:00</time>
      </trkpt>
      <trkpt lat="45.31595" lon="4.75749">
        <ele>293</ele>
        <time>2022-04-07T10:55:55+02:00</time>
      </trkpt>
      <trkpt lat="45.316" lon="4.75768">
        <ele>290</ele>
        <time>2022-04-07T10:56:11+02:00</time>
      </trkpt>
      <trkpt lat="45.31606" lon="4.75786">
        <ele>285</ele>
        <time>2022-04-07T10:56:32+02:00</time>
      </trkpt>
      <trkpt lat="45.31619" lon="4.75794">
        <ele>281</ele>
        <time>2022-04-07T10:56:50+02:00</time>
      </trkpt>
      <trkpt lat="45.31628" lon="4.75808">
        <ele>279</ele>
        <time>2022-04-07T10:57:11+02:00</time>
      </trkpt>
      <trkpt lat="45.31636" lon="4.75825">
        <ele>281</ele>
        <time>2022-04-07T10:57:25+02:00</time>
      </trkpt>
      <trkpt lat="45.31628" lon="4.75845">
        <ele>272</ele>
        <time>2022-04-07T10:58:41+02:00</time>
      </trkpt>
      <trkpt lat="45.31637" lon="4.7586">
        <ele>273</ele>
        <time>2022-04-07T10:59:05+02:00</time>
      </trkpt>
      <trkpt lat="45.31644" lon="4.75876">
        <ele>277</ele>
        <time>2022-04-07T10:59:16+02:00</time>
      </trkpt>
      <trkpt lat="45.31654" lon="4.7589">
        <ele>274</ele>
        <time>2022-04-07T10:59:34+02:00</time>
      </trkpt>
      <trkpt lat="45.31665" lon="4.75903">
        <ele>268</ele>
        <time>2022-04-07T10:59:58+02:00</time>
      </trkpt>
      <trkpt lat="45.31676" lon="4.75916">
        <ele>266</ele>
        <time>2022-04-07T11:00:15+02:00</time>
      </trkpt>
      <trkpt lat="45.31682" lon="4.75933">
        <ele>264</ele>
        <time>2022-04-07T11:00:33+02:00</time>
      </trkpt>
      <trkpt lat="45.31685" lon="4.75952">
        <ele>254</ele>
        <time>2022-04-07T11:00:55+02:00</time>
      </trkpt>
      <trkpt lat="45.31686" lon="4.75972">
        <ele>252</ele>
        <time>2022-04-07T11:01:20+02:00</time>
      </trkpt>
      <trkpt lat="45.31693" lon="4.75989">
        <ele>251</ele>
        <time>2022-04-07T11:01:44+02:00</time>
      </trkpt>
      <trkpt lat="45.31704" lon="4.75979">
        <ele>245</ele>
        <time>2022-04-07T11:02:00+02:00</time>
      </trkpt>
      <trkpt lat="45.31704" lon="4.75998">
        <ele>241</ele>
        <time>2022-04-07T11:02:21+02:00</time>
      </trkpt>
      <trkpt lat="45.31701" lon="4.76034">
        <ele>239</ele>
        <time>2022-04-07T11:02:51+02:00</time>
      </trkpt>
      <trkpt lat="45.31705" lon="4.76054">
        <ele>235</ele>
        <time>2022-04-07T11:03:06+02:00</time>
      </trkpt>
      <trkpt lat="45.31713" lon="4.7607">
        <ele>231</ele>
        <time>2022-04-07T11:03:20+02:00</time>
      </trkpt>
      <trkpt lat="45.3172" lon="4.76088">
        <ele>225</ele>
        <time>2022-04-07T11:03:35+02:00</time>
      </trkpt>
      <trkpt lat="45.31729" lon="4.76103">
        <ele>222</ele>
        <time>2022-04-07T11:03:48+02:00</time>
      </trkpt>
      <trkpt lat="45.31738" lon="4.76118">
        <ele>222</ele>
        <time>2022-04-07T11:04:01+02:00</time>
      </trkpt>
      <trkpt lat="45.31746" lon="4.76135">
        <ele>221</ele>
        <time>2022-04-07T11:04:14+02:00</time>
      </trkpt>
      <trkpt lat="45.31754" lon="4.76152">
        <ele>219</ele>
        <time>2022-04-07T11:04:28+02:00</time>
      </trkpt>
      <trkpt lat="45.31755" lon="4.76171">
        <ele>218</ele>
        <time>2022-04-07T11:05:41+02:00</time>
      </trkpt>
      <trkpt lat="45.31755" lon="4.76191">
        <ele>221</ele>
        <time>2022-04-07T11:05:51+02:00</time>
      </trkpt>
      <trkpt lat="45.3175" lon="4.7621">
        <ele>215</ele>
        <time>2022-04-07T11:06:03+02:00</time>
      </trkpt>
      <trkpt lat="45.31748" lon="4.76229">
        <ele>216</ele>
        <time>2022-04-07T11:06:14+02:00</time>
      </trkpt>
      <trkpt lat="45.31746" lon="4.76251">
        <ele>216</ele>
        <time>2022-04-07T11:06:34+02:00</time>
      </trkpt>
      <trkpt lat="45.31742" lon="4.7627">
        <ele>217</ele>
        <time>2022-04-07T11:06:42+02:00</time>
      </trkpt>
      <trkpt lat="45.31737" lon="4.76288">
        <ele>212</ele>
        <time>2022-04-07T11:06:57+02:00</time>
      </trkpt>
      <trkpt lat="45.31733" lon="4.76307">
        <ele>208</ele>
        <time>2022-04-07T11:07:11+02:00</time>
      </trkpt>
      <trkpt lat="45.31729" lon="4.76326">
        <ele>205</ele>
        <time>2022-04-07T11:08:25+02:00</time>
      </trkpt>
      <trkpt lat="45.31727" lon="4.76345">
        <ele>205</ele>
        <time>2022-04-07T11:08:36+02:00</time>
      </trkpt>
      <trkpt lat="45.31717" lon="4.76359">
        <ele>204</ele>
        <time>2022-04-07T11:08:47+02:00</time>
      </trkpt>
      <trkpt lat="45.31708" lon="4.76374">
        <ele>205</ele>
        <time>2022-04-07T11:08:57+02:00</time>
      </trkpt>
      <trkpt lat="45.31695" lon="4.76382">
        <ele>204</ele>
        <time>2022-04-07T11:09:08+02:00</time>
      </trkpt>
      <trkpt lat="45.31694" lon="4.76402">
        <ele>208</ele>
        <time>2022-04-07T11:09:18+02:00</time>
      </trkpt>
      <trkpt lat="45.31686" lon="4.76417">
        <ele>209</ele>
        <time>2022-04-07T11:09:28+02:00</time>
      </trkpt>
      <trkpt lat="45.3168" lon="4.76435">
        <ele>209</ele>
        <time>2022-04-07T11:09:40+02:00</time>
      </trkpt>
      <trkpt lat="45.31677" lon="4.76454">
        <ele>205</ele>
        <time>2022-04-07T11:09:53+02:00</time>
      </trkpt>
      <trkpt lat="45.3168" lon="4.76491">
        <ele>199</ele>
        <time>2022-04-07T11:10:24+02:00</time>
      </trkpt>
      <trkpt lat="45.31693" lon="4.76483">
        <ele>195</ele>
        <time>2022-04-07T11:10:38+02:00</time>
      </trkpt>
      <trkpt lat="45.31707" lon="4.76489">
        <ele>192</ele>
        <time>2022-04-07T11:10:51+02:00</time>
      </trkpt>
      <trkpt lat="45.31721" lon="4.76497">
        <ele>195</ele>
        <time>2022-04-07T11:11:13+02:00</time>
      </trkpt>
      <trkpt lat="45.31735" lon="4.76506">
        <ele>193</ele>
        <time>2022-04-07T11:11:18+02:00</time>
      </trkpt>
      <trkpt lat="45.31744" lon="4.7652">
        <ele>194</ele>
        <time>2022-04-07T11:11:28+02:00</time>
      </trkpt>
      <trkpt lat="45.31755" lon="4.76534">
        <ele>199</ele>
        <time>2022-04-07T11:11:37+02:00</time>
      </trkpt>
      <trkpt lat="45.31763" lon="4.76551">
        <ele>198</ele>
        <time>2022-04-07T11:11:48+02:00</time>
      </trkpt>
      <trkpt lat="45.31777" lon="4.76554">
        <ele>197</ele>
        <time>2022-04-07T11:12:03+02:00</time>
      </trkpt>
      <trkpt lat="45.31786" lon="4.76568">
        <ele>193</ele>
        <time>2022-04-07T11:12:17+02:00</time>
      </trkpt>
      <trkpt lat="45.31799" lon="4.76572">
        <ele>192</ele>
        <time>2022-04-07T11:12:36+02:00</time>
      </trkpt>
      <trkpt lat="45.31806" lon="4.76589">
        <ele>195</ele>
        <time>2022-04-07T11:12:56+02:00</time>
      </trkpt>
      <trkpt lat="45.31795" lon="4.76602">
        <ele>195</ele>
        <time>2022-04-07T11:13:08+02:00</time>
      </trkpt>
      <trkpt lat="45.31797" lon="4.76621">
        <ele>195</ele>
        <time>2022-04-07T11:13:19+02:00</time>
      </trkpt>
      <trkpt lat="45.31804" lon="4.76638">
        <ele>192</ele>
        <time>2022-04-07T11:13:30+02:00</time>
      </trkpt>
      <trkpt lat="45.31812" lon="4.76654">
        <ele>193</ele>
        <time>2022-04-07T11:13:41+02:00</time>
      </trkpt>
      <trkpt lat="45.3182" lon="4.7667">
        <ele>197</ele>
        <time>2022-04-07T11:13:52+02:00</time>
      </trkpt>
      <trkpt lat="45.31827" lon="4.76686">
        <ele>198</ele>
        <time>2022-04-07T11:14:03+02:00</time>
      </trkpt>
      <trkpt lat="45.31835" lon="4.76703">
        <ele>195</ele>
        <time>2022-04-07T11:14:15+02:00</time>
      </trkpt>
      <trkpt lat="45.31844" lon="4.76721">
        <ele>196</ele>
        <time>2022-04-07T11:14:27+02:00</time>
      </trkpt>
      <trkpt lat="45.3185" lon="4.76738">
        <ele>196</ele>
        <time>2022-04-07T11:14:38+02:00</time>
      </trkpt>
      <trkpt lat="45.31858" lon="4.76754">
        <ele>196</ele>
        <time>2022-04-07T11:14:48+02:00</time>
      </trkpt>
      <trkpt lat="45.31867" lon="4.76771">
        <ele>193</ele>
        <time>2022-04-07T11:15:00+02:00</time>
      </trkpt>
      <trkpt lat="45.31874" lon="4.76789">
        <ele>190</ele>
        <time>2022-04-07T11:15:11+02:00</time>
      </trkpt>
      <trkpt lat="45.3188" lon="4.76807">
        <ele>188</ele>
        <time>2022-04-07T11:15:24+02:00</time>
      </trkpt>
      <trkpt lat="45.31891" lon="4.7682">
        <ele>187</ele>
        <time>2022-04-07T11:15:35+02:00</time>
      </trkpt>
      <trkpt lat="45.31903" lon="4.7683">
        <ele>190</ele>
        <time>2022-04-07T11:15:46+02:00</time>
      </trkpt>
      <trkpt lat="45.31917" lon="4.76829">
        <ele>189</ele>
        <time>2022-04-07T11:15:57+02:00</time>
      </trkpt>
      <trkpt lat="45.3193" lon="4.76835">
        <ele>192</ele>
        <time>2022-04-07T11:16:09+02:00</time>
      </trkpt>
      <trkpt lat="45.31945" lon="4.76835">
        <ele>192</ele>
        <time>2022-04-07T11:16:23+02:00</time>
      </trkpt>
      <trkpt lat="45.31955" lon="4.7685">
        <ele>191</ele>
        <time>2022-04-07T11:16:34+02:00</time>
      </trkpt>
      <trkpt lat="45.31963" lon="4.76868">
        <ele>193</ele>
        <time>2022-04-07T11:16:44+02:00</time>
      </trkpt>
      <trkpt lat="45.31965" lon="4.76888">
        <ele>187</ele>
        <time>2022-04-07T11:16:57+02:00</time>
      </trkpt>
      <trkpt lat="45.31975" lon="4.76902">
        <ele>187</ele>
        <time>2022-04-07T11:17:10+02:00</time>
      </trkpt>
      <trkpt lat="45.31983" lon="4.76919">
        <ele>184</ele>
        <time>2022-04-07T11:17:22+02:00</time>
      </trkpt>
      <trkpt lat="45.31995" lon="4.76929">
        <ele>190</ele>
        <time>2022-04-07T11:17:35+02:00</time>
      </trkpt>
      <trkpt lat="45.32006" lon="4.76916">
        <ele>188</ele>
        <time>2022-04-07T11:17:50+02:00</time>
      </trkpt>
      <trkpt lat="45.32021" lon="4.76913">
        <ele>186</ele>
        <time>2022-04-07T11:18:03+02:00</time>
      </trkpt>
      <trkpt lat="45.32034" lon="4.76908">
        <ele>183</ele>
        <time>2022-04-07T11:18:14+02:00</time>
      </trkpt>
      <trkpt lat="45.32048" lon="4.76901">
        <ele>185</ele>
        <time>2022-04-07T11:18:25+02:00</time>
      </trkpt>
      <trkpt lat="45.32061" lon="4.76891">
        <ele>182</ele>
        <time>2022-04-07T11:18:36+02:00</time>
      </trkpt>
      <trkpt lat="45.32076" lon="4.76888">
        <ele>184</ele>
        <time>2022-04-07T11:18:47+02:00</time>
      </trkpt>
      <trkpt lat="45.3209" lon="4.76889">
        <ele>183</ele>
        <time>2022-04-07T11:18:58+02:00</time>
      </trkpt>
      <trkpt lat="45.32104" lon="4.76892">
        <ele>184</ele>
        <time>2022-04-07T11:19:10+02:00</time>
      </trkpt>
      <trkpt lat="45.32113" lon="4.76907">
        <ele>185</ele>
        <time>2022-04-07T11:19:20+02:00</time>
      </trkpt>
      <trkpt lat="45.32122" lon="4.76923">
        <ele>184</ele>
        <time>2022-04-07T11:19:31+02:00</time>
      </trkpt>
      <trkpt lat="45.32133" lon="4.76938">
        <ele>186</ele>
        <time>2022-04-07T11:19:42+02:00</time>
      </trkpt>
      <trkpt lat="45.3214" lon="4.76954">
        <ele>188</ele>
        <time>2022-04-07T11:19:53+02:00</time>
      </trkpt>
      <trkpt lat="45.32149" lon="4.76969">
        <ele>186</ele>
        <time>2022-04-07T11:20:03+02:00</time>
      </trkpt>
      <trkpt lat="45.32161" lon="4.76981">
        <ele>186</ele>
        <time>2022-04-07T11:20:14+02:00</time>
      </trkpt>
      <trkpt lat="45.32171" lon="4.77017">
        <ele>187</ele>
        <time>2022-04-07T11:20:36+02:00</time>
      </trkpt>
      <trkpt lat="45.32176" lon="4.77035">
        <ele>188</ele>
        <time>2022-04-07T11:20:46+02:00</time>
      </trkpt>
      <trkpt lat="45.32182" lon="4.77053">
        <ele>189</ele>
        <time>2022-04-07T11:20:56+02:00</time>
      </trkpt>
      <trkpt lat="45.32187" lon="4.77071">
        <ele>188</ele>
        <time>2022-04-07T11:21:07+02:00</time>
      </trkpt>
      <trkpt lat="45.32194" lon="4.77088">
        <ele>189</ele>
        <time>2022-04-07T11:21:17+02:00</time>
      </trkpt>
      <trkpt lat="45.32199" lon="4.77107">
        <ele>189</ele>
        <time>2022-04-07T11:21:29+02:00</time>
      </trkpt>
      <trkpt lat="45.32206" lon="4.77125">
        <ele>190</ele>
        <time>2022-04-07T11:21:40+02:00</time>
      </trkpt>
      <trkpt lat="45.32212" lon="4.77142">
        <ele>191</ele>
        <time>2022-04-07T11:21:51+02:00</time>
      </trkpt>
      <trkpt lat="45.32219" lon="4.7716">
        <ele>190</ele>
        <time>2022-04-07T11:22:03+02:00</time>
      </trkpt>
      <trkpt lat="45.32224" lon="4.77179">
        <ele>189</ele>
        <time>2022-04-07T11:22:15+02:00</time>
      </trkpt>
      <trkpt lat="45.3223" lon="4.77196">
        <ele>187</ele>
        <time>2022-04-07T11:22:26+02:00</time>
      </trkpt>
      <trkpt lat="45.32237" lon="4.77214">
        <ele>187</ele>
        <time>2022-04-07T11:22:38+02:00</time>
      </trkpt>
      <trkpt lat="45.32241" lon="4.77233">
        <ele>188</ele>
        <time>2022-04-07T11:22:49+02:00</time>
      </trkpt>
      <trkpt lat="45.32247" lon="4.77252">
        <ele>187</ele>
        <time>2022-04-07T11:23:01+02:00</time>
      </trkpt>
      <trkpt lat="45.32252" lon="4.7727">
        <ele>187</ele>
        <time>2022-04-07T11:23:12+02:00</time>
      </trkpt>
      <trkpt lat="45.32258" lon="4.77288">
        <ele>188</ele>
        <time>2022-04-07T11:23:23+02:00</time>
      </trkpt>
      <trkpt lat="45.32264" lon="4.77305">
        <ele>187</ele>
        <time>2022-04-07T11:23:34+02:00</time>
      </trkpt>
      <trkpt lat="45.3227" lon="4.77323">
        <ele>188</ele>
        <time>2022-04-07T11:23:45+02:00</time>
      </trkpt>
      <trkpt lat="45.32276" lon="4.77342">
        <ele>186</ele>
        <time>2022-04-07T11:23:56+02:00</time>
      </trkpt>
      <trkpt lat="45.3228" lon="4.77361">
        <ele>187</ele>
        <time>2022-04-07T11:24:07+02:00</time>
      </trkpt>
      <trkpt lat="45.32283" lon="4.77379">
        <ele>189</ele>
        <time>2022-04-07T11:24:17+02:00</time>
      </trkpt>
      <trkpt lat="45.32289" lon="4.77398">
        <ele>189</ele>
        <time>2022-04-07T11:24:28+02:00</time>
      </trkpt>
      <trkpt lat="45.32293" lon="4.77418">
        <ele>190</ele>
        <time>2022-04-07T11:24:39+02:00</time>
      </trkpt>
      <trkpt lat="45.32298" lon="4.77437">
        <ele>187</ele>
        <time>2022-04-07T11:24:50+02:00</time>
      </trkpt>
      <trkpt lat="45.32302" lon="4.77457">
        <ele>186</ele>
        <time>2022-04-07T11:25:02+02:00</time>
      </trkpt>
      <trkpt lat="45.32305" lon="4.77476">
        <ele>186</ele>
        <time>2022-04-07T11:25:13+02:00</time>
      </trkpt>
      <trkpt lat="45.32309" lon="4.77495">
        <ele>187</ele>
        <time>2022-04-07T11:25:24+02:00</time>
      </trkpt>
      <trkpt lat="45.32312" lon="4.77515">
        <ele>188</ele>
        <time>2022-04-07T11:25:35+02:00</time>
      </trkpt>
      <trkpt lat="45.32314" lon="4.77534">
        <ele>187</ele>
        <time>2022-04-07T11:25:46+02:00</time>
      </trkpt>
      <trkpt lat="45.3232" lon="4.77553">
        <ele>187</ele>
        <time>2022-04-07T11:25:57+02:00</time>
      </trkpt>
      <trkpt lat="45.32323" lon="4.77572">
        <ele>185</ele>
        <time>2022-04-07T11:26:08+02:00</time>
      </trkpt>
      <trkpt lat="45.32327" lon="4.77592">
        <ele>186</ele>
        <time>2022-04-07T11:26:20+02:00</time>
      </trkpt>
      <trkpt lat="45.32332" lon="4.77611">
        <ele>186</ele>
        <time>2022-04-07T11:26:30+02:00</time>
      </trkpt>
      <trkpt lat="45.32328" lon="4.7763">
        <ele>186</ele>
        <time>2022-04-07T11:26:42+02:00</time>
      </trkpt>
      <trkpt lat="45.32314" lon="4.77635">
        <ele>187</ele>
        <time>2022-04-07T11:26:54+02:00</time>
      </trkpt>
      <trkpt lat="45.323" lon="4.77638">
        <ele>187</ele>
        <time>2022-04-07T11:27:05+02:00</time>
      </trkpt>
      <trkpt lat="45.32286" lon="4.77641">
        <ele>185</ele>
        <time>2022-04-07T11:27:16+02:00</time>
      </trkpt>
      <trkpt lat="45.32272" lon="4.77642">
        <ele>186</ele>
        <time>2022-04-07T11:27:27+02:00</time>
      </trkpt>
      <trkpt lat="45.32257" lon="4.77643">
        <ele>189</ele>
        <time>2022-04-07T11:27:38+02:00</time>
      </trkpt>
      <trkpt lat="45.32247" lon="4.77657">
        <ele>187</ele>
        <time>2022-04-07T11:27:52+02:00</time>
      </trkpt>
      <trkpt lat="45.32253" lon="4.77675">
        <ele>188</ele>
        <time>2022-04-07T11:28:02+02:00</time>
      </trkpt>
      <trkpt lat="45.3226" lon="4.77692">
        <ele>188</ele>
        <time>2022-04-07T11:28:12+02:00</time>
      </trkpt>
      <trkpt lat="45.32268" lon="4.77709">
        <ele>187</ele>
        <time>2022-04-07T11:28:24+02:00</time>
      </trkpt>
      <trkpt lat="45.32275" lon="4.77727">
        <ele>188</ele>
        <time>2022-04-07T11:28:36+02:00</time>
      </trkpt>
      <trkpt lat="45.32282" lon="4.77745">
        <ele>190</ele>
        <time>2022-04-07T11:28:47+02:00</time>
      </trkpt>
      <trkpt lat="45.32289" lon="4.77761">
        <ele>191</ele>
        <time>2022-04-07T11:28:58+02:00</time>
      </trkpt>
      <trkpt lat="45.32296" lon="4.77778">
        <ele>191</ele>
        <time>2022-04-07T11:29:26+02:00</time>
      </trkpt>
      <trkpt lat="45.3231" lon="4.77781">
        <ele>190</ele>
        <time>2022-04-07T11:29:41+02:00</time>
      </trkpt>
    </trkseg>
  </trk>
</gpx>